<?xml version="1.0" encoding="UTF-8" standalone="no" ?>
<gpx xmlns="http://www.topografix.com/GPX/1/1" creator="MapSource 6.14.1" version="1.1" xmlns:xsi="http://www.w3.org/2001/XMLSchema-instance" xsi:schemaLocation="http://www.garmin.com/xmlschemas/GpxExtensions/v3 http://www.garmin.com/xmlschemas/GpxExtensionsv3.xsd http://www.topografix.com/GPX/1/1 http://www.topografix.com/GPX/1/1/gpx.xsd">

  <metadata>
    <link href="http://www.garmin.com">
      <text>Garmin International</text>
    </link>
    <time>2008-12-22T08:01:01Z</time>
    <bounds maxlat="45.7465982" maxlon="8.9573336" minlat="45.6817317" minlon="8.9221644"/>
  </metadata>

  <wpt lat="45.6819500" lon="8.9572000">
    <ele>301.0000000</ele>
    <time>2008-12-22T07:58:40Z</time>
    <name>PARTENZA/ARRIVO</name>
    <sym>Bike Trail</sym>
    <extensions>
      <gpxx:WaypointExtension xmlns:gpxx="http://www.garmin.com/xmlschemas/GpxExtensions/v3">
        <gpxx:DisplayMode>SymbolAndName</gpxx:DisplayMode>
      </gpxx:WaypointExtension>
    </extensions>
  </wpt>

  <trk>
    <name>ACTIVE LOG</name>
    <extensions>
      <gpxx:TrackExtension xmlns:gpxx="http://www.garmin.com/xmlschemas/GpxExtensions/v3">
        <gpxx:DisplayColor>White</gpxx:DisplayColor>
      </gpxx:TrackExtension>
    </extensions>
    <trkseg>
      <trkpt lat="45.6819463" lon="8.9572048">
        <ele>245.2734375</ele>
        <time>2008-12-21T08:49:59Z</time>
      </trkpt>
      <trkpt lat="45.6819463" lon="8.9571834">
        <ele>250.5607910</ele>
        <time>2008-12-21T08:50:34Z</time>
      </trkpt>
      <trkpt lat="45.6820107" lon="8.9572477">
        <ele>247.6767578</ele>
        <time>2008-12-21T08:51:58Z</time>
      </trkpt>
      <trkpt lat="45.6820965" lon="8.9573336">
        <ele>248.1575928</ele>
        <time>2008-12-21T08:52:02Z</time>
      </trkpt>
      <trkpt lat="45.6822681" lon="8.9572477">
        <ele>249.1187744</ele>
        <time>2008-12-21T08:52:09Z</time>
      </trkpt>
      <trkpt lat="45.6825900" lon="8.9570546">
        <ele>248.6381836</ele>
        <time>2008-12-21T08:52:21Z</time>
      </trkpt>
      <trkpt lat="45.6830192" lon="8.9567757">
        <ele>247.1960449</ele>
        <time>2008-12-21T08:52:37Z</time>
      </trkpt>
      <trkpt lat="45.6831694" lon="8.9566684">
        <ele>248.1575928</ele>
        <time>2008-12-21T08:52:43Z</time>
      </trkpt>
      <trkpt lat="45.6832337" lon="8.9564323">
        <ele>250.0802002</ele>
        <time>2008-12-21T08:52:49Z</time>
      </trkpt>
      <trkpt lat="45.6832981" lon="8.9561963">
        <ele>250.0802002</ele>
        <time>2008-12-21T08:52:57Z</time>
      </trkpt>
      <trkpt lat="45.6835771" lon="8.9558959">
        <ele>248.6381836</ele>
        <time>2008-12-21T08:53:07Z</time>
      </trkpt>
      <trkpt lat="45.6839204" lon="8.9556384">
        <ele>249.1187744</ele>
        <time>2008-12-21T08:53:17Z</time>
      </trkpt>
      <trkpt lat="45.6843066" lon="8.9555955">
        <ele>249.1187744</ele>
        <time>2008-12-21T08:53:28Z</time>
      </trkpt>
      <trkpt lat="45.6846714" lon="8.9555526">
        <ele>249.1187744</ele>
        <time>2008-12-21T08:53:40Z</time>
      </trkpt>
      <trkpt lat="45.6851435" lon="8.9554667">
        <ele>251.5220947</ele>
        <time>2008-12-21T08:53:54Z</time>
      </trkpt>
      <trkpt lat="45.6851864" lon="8.9554667">
        <ele>251.0413818</ele>
        <time>2008-12-21T08:53:55Z</time>
      </trkpt>
      <trkpt lat="45.6853151" lon="8.9554882">
        <ele>250.0802002</ele>
        <time>2008-12-21T08:53:59Z</time>
      </trkpt>
      <trkpt lat="45.6855726" lon="8.9554667">
        <ele>249.1187744</ele>
        <time>2008-12-21T08:54:05Z</time>
      </trkpt>
      <trkpt lat="45.6860018" lon="8.9554238">
        <ele>248.6381836</ele>
        <time>2008-12-21T08:54:16Z</time>
      </trkpt>
      <trkpt lat="45.6863451" lon="8.9553809">
        <ele>252.0028076</ele>
        <time>2008-12-21T08:54:27Z</time>
      </trkpt>
      <trkpt lat="45.6865597" lon="8.9553809">
        <ele>251.5220947</ele>
        <time>2008-12-21T08:54:36Z</time>
      </trkpt>
      <trkpt lat="45.6867957" lon="8.9553595">
        <ele>254.8865967</ele>
        <time>2008-12-21T08:54:46Z</time>
      </trkpt>
      <trkpt lat="45.6871605" lon="8.9552736">
        <ele>255.3673096</ele>
        <time>2008-12-21T08:54:58Z</time>
      </trkpt>
      <trkpt lat="45.6874394" lon="8.9551878">
        <ele>255.3673096</ele>
        <time>2008-12-21T08:55:10Z</time>
      </trkpt>
      <trkpt lat="45.6876969" lon="8.9551020">
        <ele>255.8480225</ele>
        <time>2008-12-21T08:55:20Z</time>
      </trkpt>
      <trkpt lat="45.6879544" lon="8.9550161">
        <ele>257.7707520</ele>
        <time>2008-12-21T08:55:31Z</time>
      </trkpt>
      <trkpt lat="45.6882548" lon="8.9548659">
        <ele>257.7707520</ele>
        <time>2008-12-21T08:55:43Z</time>
      </trkpt>
      <trkpt lat="45.6882977" lon="8.9548445">
        <ele>257.7707520</ele>
        <time>2008-12-21T08:55:45Z</time>
      </trkpt>
      <trkpt lat="45.6882977" lon="8.9548445">
        <ele>257.2900391</ele>
        <time>2008-12-21T08:55:48Z</time>
      </trkpt>
      <trkpt lat="45.6883192" lon="8.9548230">
        <ele>257.7707520</ele>
        <time>2008-12-21T08:55:49Z</time>
      </trkpt>
      <trkpt lat="45.6888342" lon="8.9545441">
        <ele>257.7707520</ele>
        <time>2008-12-21T08:55:58Z</time>
      </trkpt>
      <trkpt lat="45.6890488" lon="8.9545226">
        <ele>259.2126465</ele>
        <time>2008-12-21T08:56:07Z</time>
      </trkpt>
      <trkpt lat="45.6892848" lon="8.9544368">
        <ele>260.6545410</ele>
        <time>2008-12-21T08:56:17Z</time>
      </trkpt>
      <trkpt lat="45.6894350" lon="8.9543295">
        <ele>260.6545410</ele>
        <time>2008-12-21T08:56:24Z</time>
      </trkpt>
      <trkpt lat="45.6895423" lon="8.9541793">
        <ele>260.6545410</ele>
        <time>2008-12-21T08:56:31Z</time>
      </trkpt>
      <trkpt lat="45.6895638" lon="8.9541578">
        <ele>259.2126465</ele>
        <time>2008-12-21T08:56:35Z</time>
      </trkpt>
      <trkpt lat="45.6895638" lon="8.9541149">
        <ele>260.6545410</ele>
        <time>2008-12-21T08:56:46Z</time>
      </trkpt>
      <trkpt lat="45.6896925" lon="8.9540291">
        <ele>262.5771484</ele>
        <time>2008-12-21T08:57:05Z</time>
      </trkpt>
      <trkpt lat="45.6897140" lon="8.9540076">
        <ele>262.0965576</ele>
        <time>2008-12-21T08:57:15Z</time>
      </trkpt>
      <trkpt lat="45.6897354" lon="8.9540076">
        <ele>261.1352539</ele>
        <time>2008-12-21T08:57:37Z</time>
      </trkpt>
      <trkpt lat="45.6898212" lon="8.9538145">
        <ele>253.9254150</ele>
        <time>2008-12-21T09:02:48Z</time>
      </trkpt>
      <trkpt lat="45.6899929" lon="8.9537501">
        <ele>255.3673096</ele>
        <time>2008-12-21T09:02:56Z</time>
      </trkpt>
      <trkpt lat="45.6901217" lon="8.9537072">
        <ele>257.2900391</ele>
        <time>2008-12-21T09:03:06Z</time>
      </trkpt>
      <trkpt lat="45.6903791" lon="8.9536214">
        <ele>256.8093262</ele>
        <time>2008-12-21T09:03:16Z</time>
      </trkpt>
      <trkpt lat="45.6907010" lon="8.9534926">
        <ele>258.2513428</ele>
        <time>2008-12-21T09:03:26Z</time>
      </trkpt>
      <trkpt lat="45.6909585" lon="8.9533639">
        <ele>261.6159668</ele>
        <time>2008-12-21T09:03:36Z</time>
      </trkpt>
      <trkpt lat="45.6910443" lon="8.9532995">
        <ele>263.5385742</ele>
        <time>2008-12-21T09:03:44Z</time>
      </trkpt>
      <trkpt lat="45.6911945" lon="8.9532137">
        <ele>267.3839111</ele>
        <time>2008-12-21T09:03:53Z</time>
      </trkpt>
      <trkpt lat="45.6913233" lon="8.9531708">
        <ele>264.0192871</ele>
        <time>2008-12-21T09:04:00Z</time>
      </trkpt>
      <trkpt lat="45.6915808" lon="8.9530206">
        <ele>264.0192871</ele>
        <time>2008-12-21T09:04:09Z</time>
      </trkpt>
      <trkpt lat="45.6918383" lon="8.9529133">
        <ele>268.3450928</ele>
        <time>2008-12-21T09:04:19Z</time>
      </trkpt>
      <trkpt lat="45.6921172" lon="8.9527845">
        <ele>269.7871094</ele>
        <time>2008-12-21T09:04:31Z</time>
      </trkpt>
      <trkpt lat="45.6924820" lon="8.9527631">
        <ele>269.3065186</ele>
        <time>2008-12-21T09:04:44Z</time>
      </trkpt>
      <trkpt lat="45.6925678" lon="8.9527416">
        <ele>269.3065186</ele>
        <time>2008-12-21T09:04:47Z</time>
      </trkpt>
      <trkpt lat="45.6926751" lon="8.9526987">
        <ele>269.3065186</ele>
        <time>2008-12-21T09:04:51Z</time>
      </trkpt>
      <trkpt lat="45.6929970" lon="8.9527202">
        <ele>270.2677002</ele>
        <time>2008-12-21T09:04:59Z</time>
      </trkpt>
      <trkpt lat="45.6935978" lon="8.9527631">
        <ele>269.7871094</ele>
        <time>2008-12-21T09:05:09Z</time>
      </trkpt>
      <trkpt lat="45.6938982" lon="8.9527845">
        <ele>270.2677002</ele>
        <time>2008-12-21T09:05:19Z</time>
      </trkpt>
      <trkpt lat="45.6940913" lon="8.9526987">
        <ele>269.3065186</ele>
        <time>2008-12-21T09:05:28Z</time>
      </trkpt>
      <trkpt lat="45.6942201" lon="8.9526129">
        <ele>268.8258057</ele>
        <time>2008-12-21T09:05:36Z</time>
      </trkpt>
      <trkpt lat="45.6943274" lon="8.9525270">
        <ele>268.8258057</ele>
        <time>2008-12-21T09:05:44Z</time>
      </trkpt>
      <trkpt lat="45.6943488" lon="8.9525056">
        <ele>270.2677002</ele>
        <time>2008-12-21T09:06:09Z</time>
      </trkpt>
      <trkpt lat="45.6943917" lon="8.9525700">
        <ele>269.7871094</ele>
        <time>2008-12-21T09:06:17Z</time>
      </trkpt>
      <trkpt lat="45.6944132" lon="8.9526343">
        <ele>271.2291260</ele>
        <time>2008-12-21T09:06:25Z</time>
      </trkpt>
      <trkpt lat="45.6945419" lon="8.9528060">
        <ele>275.5550537</ele>
        <time>2008-12-21T09:06:38Z</time>
      </trkpt>
      <trkpt lat="45.6946278" lon="8.9529991">
        <ele>275.5550537</ele>
        <time>2008-12-21T09:06:51Z</time>
      </trkpt>
      <trkpt lat="45.6947351" lon="8.9530849">
        <ele>276.0356445</ele>
        <time>2008-12-21T09:07:04Z</time>
      </trkpt>
      <trkpt lat="45.6948209" lon="8.9531064">
        <ele>276.5163574</ele>
        <time>2008-12-21T09:07:16Z</time>
      </trkpt>
      <trkpt lat="45.6948853" lon="8.9530849">
        <ele>276.5163574</ele>
        <time>2008-12-21T09:07:21Z</time>
      </trkpt>
      <trkpt lat="45.6950784" lon="8.9530635">
        <ele>276.9970703</ele>
        <time>2008-12-21T09:07:33Z</time>
      </trkpt>
      <trkpt lat="45.6952929" lon="8.9530849">
        <ele>277.4776611</ele>
        <time>2008-12-21T09:07:43Z</time>
      </trkpt>
      <trkpt lat="45.6954002" lon="8.9531279">
        <ele>277.4776611</ele>
        <time>2008-12-21T09:07:49Z</time>
      </trkpt>
      <trkpt lat="45.6954217" lon="8.9531708">
        <ele>277.4776611</ele>
        <time>2008-12-21T09:07:51Z</time>
      </trkpt>
      <trkpt lat="45.6956148" lon="8.9532351">
        <ele>277.4776611</ele>
        <time>2008-12-21T09:08:02Z</time>
      </trkpt>
      <trkpt lat="45.6958079" lon="8.9531922">
        <ele>277.4776611</ele>
        <time>2008-12-21T09:08:10Z</time>
      </trkpt>
      <trkpt lat="45.6961298" lon="8.9531279">
        <ele>276.5163574</ele>
        <time>2008-12-21T09:08:21Z</time>
      </trkpt>
      <trkpt lat="45.6965375" lon="8.9530635">
        <ele>276.5163574</ele>
        <time>2008-12-21T09:08:34Z</time>
      </trkpt>
      <trkpt lat="45.6968594" lon="8.9531064">
        <ele>274.5937500</ele>
        <time>2008-12-21T09:08:44Z</time>
      </trkpt>
      <trkpt lat="45.6973100" lon="8.9532137">
        <ele>274.5937500</ele>
        <time>2008-12-21T09:09:00Z</time>
      </trkpt>
      <trkpt lat="45.6976104" lon="8.9532995">
        <ele>276.9970703</ele>
        <time>2008-12-21T09:09:10Z</time>
      </trkpt>
      <trkpt lat="45.6978250" lon="8.9534068">
        <ele>277.4776611</ele>
        <time>2008-12-21T09:09:17Z</time>
      </trkpt>
      <trkpt lat="45.6979537" lon="8.9534283">
        <ele>277.4776611</ele>
        <time>2008-12-21T09:09:24Z</time>
      </trkpt>
      <trkpt lat="45.6979752" lon="8.9534712">
        <ele>277.4776611</ele>
        <time>2008-12-21T09:09:39Z</time>
      </trkpt>
      <trkpt lat="45.6980824" lon="8.9533424">
        <ele>305.8366699</ele>
        <time>2008-12-21T09:12:04Z</time>
      </trkpt>
      <trkpt lat="45.6981254" lon="8.9533854">
        <ele>305.3559570</ele>
        <time>2008-12-21T09:12:11Z</time>
      </trkpt>
      <trkpt lat="45.6981468" lon="8.9534068">
        <ele>305.3559570</ele>
        <time>2008-12-21T09:12:12Z</time>
      </trkpt>
      <trkpt lat="45.6982112" lon="8.9534283">
        <ele>305.3559570</ele>
        <time>2008-12-21T09:12:14Z</time>
      </trkpt>
      <trkpt lat="45.6983399" lon="8.9534068">
        <ele>305.3559570</ele>
        <time>2008-12-21T09:12:20Z</time>
      </trkpt>
      <trkpt lat="45.6984687" lon="8.9533854">
        <ele>305.8366699</ele>
        <time>2008-12-21T09:12:27Z</time>
      </trkpt>
      <trkpt lat="45.6987906" lon="8.9533424">
        <ele>305.8366699</ele>
        <time>2008-12-21T09:12:39Z</time>
      </trkpt>
      <trkpt lat="45.6992841" lon="8.9534926">
        <ele>307.7592773</ele>
        <time>2008-12-21T09:12:48Z</time>
      </trkpt>
      <trkpt lat="45.6996703" lon="8.9534926">
        <ele>308.2398682</ele>
        <time>2008-12-21T09:13:02Z</time>
      </trkpt>
      <trkpt lat="45.6999493" lon="8.9535141">
        <ele>308.2398682</ele>
        <time>2008-12-21T09:13:12Z</time>
      </trkpt>
      <trkpt lat="45.7002282" lon="8.9535356">
        <ele>308.2398682</ele>
        <time>2008-12-21T09:13:22Z</time>
      </trkpt>
      <trkpt lat="45.7004857" lon="8.9535356">
        <ele>310.1624756</ele>
        <time>2008-12-21T09:13:34Z</time>
      </trkpt>
      <trkpt lat="45.7007003" lon="8.9535141">
        <ele>310.1624756</ele>
        <time>2008-12-21T09:13:41Z</time>
      </trkpt>
      <trkpt lat="45.7010221" lon="8.9535141">
        <ele>310.6430664</ele>
        <time>2008-12-21T09:13:53Z</time>
      </trkpt>
      <trkpt lat="45.7012582" lon="8.9535141">
        <ele>312.0852051</ele>
        <time>2008-12-21T09:14:02Z</time>
      </trkpt>
      <trkpt lat="45.7015371" lon="8.9535141">
        <ele>312.5657959</ele>
        <time>2008-12-21T09:14:12Z</time>
      </trkpt>
      <trkpt lat="45.7016873" lon="8.9535356">
        <ele>312.5657959</ele>
        <time>2008-12-21T09:14:20Z</time>
      </trkpt>
      <trkpt lat="45.7019234" lon="8.9535785">
        <ele>312.5657959</ele>
        <time>2008-12-21T09:14:30Z</time>
      </trkpt>
      <trkpt lat="45.7021594" lon="8.9536428">
        <ele>311.1237793</ele>
        <time>2008-12-21T09:14:40Z</time>
      </trkpt>
      <trkpt lat="45.7024598" lon="8.9536643">
        <ele>306.7978516</ele>
        <time>2008-12-21T09:14:50Z</time>
      </trkpt>
      <trkpt lat="45.7029104" lon="8.9537287">
        <ele>309.2011719</ele>
        <time>2008-12-21T09:15:04Z</time>
      </trkpt>
      <trkpt lat="45.7032537" lon="8.9537716">
        <ele>309.2011719</ele>
        <time>2008-12-21T09:15:14Z</time>
      </trkpt>
      <trkpt lat="45.7034469" lon="8.9537501">
        <ele>309.2011719</ele>
        <time>2008-12-21T09:15:21Z</time>
      </trkpt>
      <trkpt lat="45.7036614" lon="8.9536428">
        <ele>309.2011719</ele>
        <time>2008-12-21T09:15:30Z</time>
      </trkpt>
      <trkpt lat="45.7038546" lon="8.9536214">
        <ele>309.2011719</ele>
        <time>2008-12-21T09:15:38Z</time>
      </trkpt>
      <trkpt lat="45.7040477" lon="8.9536643">
        <ele>308.7204590</ele>
        <time>2008-12-21T09:15:48Z</time>
      </trkpt>
      <trkpt lat="45.7043266" lon="8.9537287">
        <ele>308.2398682</ele>
        <time>2008-12-21T09:15:59Z</time>
      </trkpt>
      <trkpt lat="45.7046056" lon="8.9538145">
        <ele>308.2398682</ele>
        <time>2008-12-21T09:16:08Z</time>
      </trkpt>
      <trkpt lat="45.7048845" lon="8.9539647">
        <ele>308.2398682</ele>
        <time>2008-12-21T09:16:18Z</time>
      </trkpt>
      <trkpt lat="45.7050776" lon="8.9540505">
        <ele>306.7978516</ele>
        <time>2008-12-21T09:16:27Z</time>
      </trkpt>
      <trkpt lat="45.7053137" lon="8.9541793">
        <ele>306.3172607</ele>
        <time>2008-12-21T09:16:39Z</time>
      </trkpt>
      <trkpt lat="45.7053995" lon="8.9542222">
        <ele>306.7978516</ele>
        <time>2008-12-21T09:16:46Z</time>
      </trkpt>
      <trkpt lat="45.7055068" lon="8.9543080">
        <ele>308.2398682</ele>
        <time>2008-12-21T09:17:01Z</time>
      </trkpt>
      <trkpt lat="45.7055712" lon="8.9543509">
        <ele>307.2785645</ele>
        <time>2008-12-21T09:17:10Z</time>
      </trkpt>
      <trkpt lat="45.7056999" lon="8.9543724">
        <ele>307.7592773</ele>
        <time>2008-12-21T09:17:19Z</time>
      </trkpt>
      <trkpt lat="45.7057214" lon="8.9544153">
        <ele>306.7978516</ele>
        <time>2008-12-21T09:17:24Z</time>
      </trkpt>
      <trkpt lat="45.7059360" lon="8.9543509">
        <ele>307.7592773</ele>
        <time>2008-12-21T09:17:36Z</time>
      </trkpt>
      <trkpt lat="45.7061934" lon="8.9542866">
        <ele>308.7204590</ele>
        <time>2008-12-21T09:17:45Z</time>
      </trkpt>
      <trkpt lat="45.7065368" lon="8.9541149">
        <ele>308.7204590</ele>
        <time>2008-12-21T09:17:57Z</time>
      </trkpt>
      <trkpt lat="45.7068586" lon="8.9540720">
        <ele>308.7204590</ele>
        <time>2008-12-21T09:18:07Z</time>
      </trkpt>
      <trkpt lat="45.7070947" lon="8.9541149">
        <ele>308.7204590</ele>
        <time>2008-12-21T09:18:16Z</time>
      </trkpt>
      <trkpt lat="45.7073951" lon="8.9542651">
        <ele>308.7204590</ele>
        <time>2008-12-21T09:18:27Z</time>
      </trkpt>
      <trkpt lat="45.7076311" lon="8.9545441">
        <ele>308.2398682</ele>
        <time>2008-12-21T09:18:41Z</time>
      </trkpt>
      <trkpt lat="45.7078886" lon="8.9550376">
        <ele>308.2398682</ele>
        <time>2008-12-21T09:18:52Z</time>
      </trkpt>
      <trkpt lat="45.7079744" lon="8.9551878">
        <ele>308.7204590</ele>
        <time>2008-12-21T09:19:03Z</time>
      </trkpt>
      <trkpt lat="45.7081461" lon="8.9554024">
        <ele>308.2398682</ele>
        <time>2008-12-21T09:19:17Z</time>
      </trkpt>
      <trkpt lat="45.7083178" lon="8.9554667">
        <ele>308.7204590</ele>
        <time>2008-12-21T09:19:26Z</time>
      </trkpt>
      <trkpt lat="45.7086182" lon="8.9555311">
        <ele>309.6818848</ele>
        <time>2008-12-21T09:19:36Z</time>
      </trkpt>
      <trkpt lat="45.7088757" lon="8.9555097">
        <ele>306.7978516</ele>
        <time>2008-12-21T09:19:45Z</time>
      </trkpt>
      <trkpt lat="45.7089400" lon="8.9554667">
        <ele>307.7592773</ele>
        <time>2008-12-21T09:19:50Z</time>
      </trkpt>
      <trkpt lat="45.7089829" lon="8.9554453">
        <ele>307.7592773</ele>
        <time>2008-12-21T09:19:56Z</time>
      </trkpt>
      <trkpt lat="45.7090473" lon="8.9553380">
        <ele>307.2785645</ele>
        <time>2008-12-21T09:20:06Z</time>
      </trkpt>
      <trkpt lat="45.7090473" lon="8.9552522">
        <ele>307.2785645</ele>
        <time>2008-12-21T09:20:10Z</time>
      </trkpt>
      <trkpt lat="45.7089615" lon="8.9551020">
        <ele>307.7592773</ele>
        <time>2008-12-21T09:20:16Z</time>
      </trkpt>
      <trkpt lat="45.7090473" lon="8.9550591">
        <ele>306.3172607</ele>
        <time>2008-12-21T09:20:21Z</time>
      </trkpt>
      <trkpt lat="45.7091761" lon="8.9551663">
        <ele>305.3559570</ele>
        <time>2008-12-21T09:20:30Z</time>
      </trkpt>
      <trkpt lat="45.7091975" lon="8.9551663">
        <ele>306.3172607</ele>
        <time>2008-12-21T09:20:36Z</time>
      </trkpt>
      <trkpt lat="45.7092404" lon="8.9551234">
        <ele>314.4884033</ele>
        <time>2008-12-21T09:21:18Z</time>
      </trkpt>
      <trkpt lat="45.7093906" lon="8.9551663">
        <ele>312.5657959</ele>
        <time>2008-12-21T09:21:24Z</time>
      </trkpt>
      <trkpt lat="45.7094336" lon="8.9551663">
        <ele>312.5657959</ele>
        <time>2008-12-21T09:21:25Z</time>
      </trkpt>
      <trkpt lat="45.7100129" lon="8.9550376">
        <ele>312.5657959</ele>
        <time>2008-12-21T09:21:40Z</time>
      </trkpt>
      <trkpt lat="45.7105494" lon="8.9549088">
        <ele>313.5272217</ele>
        <time>2008-12-21T09:21:54Z</time>
      </trkpt>
      <trkpt lat="45.7110643" lon="8.9548230">
        <ele>313.5272217</ele>
        <time>2008-12-21T09:22:07Z</time>
      </trkpt>
      <trkpt lat="45.7111073" lon="8.9549303">
        <ele>313.0465088</ele>
        <time>2008-12-21T09:22:10Z</time>
      </trkpt>
      <trkpt lat="45.7112360" lon="8.9550376">
        <ele>314.0078125</ele>
        <time>2008-12-21T09:22:15Z</time>
      </trkpt>
      <trkpt lat="45.7114291" lon="8.9551878">
        <ele>314.0078125</ele>
        <time>2008-12-21T09:22:21Z</time>
      </trkpt>
      <trkpt lat="45.7118583" lon="8.9552307">
        <ele>315.4498291</ele>
        <time>2008-12-21T09:22:31Z</time>
      </trkpt>
      <trkpt lat="45.7122660" lon="8.9552522">
        <ele>314.0078125</ele>
        <time>2008-12-21T09:22:41Z</time>
      </trkpt>
      <trkpt lat="45.7124805" lon="8.9551663">
        <ele>313.5272217</ele>
        <time>2008-12-21T09:22:46Z</time>
      </trkpt>
      <trkpt lat="45.7129097" lon="8.9551020">
        <ele>312.0852051</ele>
        <time>2008-12-21T09:22:54Z</time>
      </trkpt>
      <trkpt lat="45.7130814" lon="8.9550591">
        <ele>312.5657959</ele>
        <time>2008-12-21T09:22:59Z</time>
      </trkpt>
      <trkpt lat="45.7133174" lon="8.9551020">
        <ele>312.5657959</ele>
        <time>2008-12-21T09:23:07Z</time>
      </trkpt>
      <trkpt lat="45.7137895" lon="8.9551020">
        <ele>312.5657959</ele>
        <time>2008-12-21T09:23:18Z</time>
      </trkpt>
      <trkpt lat="45.7141328" lon="8.9550591">
        <ele>313.5272217</ele>
        <time>2008-12-21T09:23:26Z</time>
      </trkpt>
      <trkpt lat="45.7146049" lon="8.9549947">
        <ele>312.5657959</ele>
        <time>2008-12-21T09:23:39Z</time>
      </trkpt>
      <trkpt lat="45.7151413" lon="8.9549732">
        <ele>312.5657959</ele>
        <time>2008-12-21T09:23:51Z</time>
      </trkpt>
      <trkpt lat="45.7159352" lon="8.9549303">
        <ele>312.0852051</ele>
        <time>2008-12-21T09:24:07Z</time>
      </trkpt>
      <trkpt lat="45.7167292" lon="8.9548230">
        <ele>311.6044922</ele>
        <time>2008-12-21T09:24:26Z</time>
      </trkpt>
      <trkpt lat="45.7172012" lon="8.9547586">
        <ele>311.6044922</ele>
        <time>2008-12-21T09:24:36Z</time>
      </trkpt>
      <trkpt lat="45.7175660" lon="8.9546514">
        <ele>312.0852051</ele>
        <time>2008-12-21T09:24:45Z</time>
      </trkpt>
      <trkpt lat="45.7179952" lon="8.9544582">
        <ele>314.4884033</ele>
        <time>2008-12-21T09:24:56Z</time>
      </trkpt>
      <trkpt lat="45.7183599" lon="8.9543724">
        <ele>315.4498291</ele>
        <time>2008-12-21T09:25:07Z</time>
      </trkpt>
      <trkpt lat="45.7187247" lon="8.9543509">
        <ele>315.4498291</ele>
        <time>2008-12-21T09:25:18Z</time>
      </trkpt>
      <trkpt lat="45.7190895" lon="8.9542222">
        <ele>316.4110107</ele>
        <time>2008-12-21T09:25:33Z</time>
      </trkpt>
      <trkpt lat="45.7192612" lon="8.9541578">
        <ele>315.9304199</ele>
        <time>2008-12-21T09:25:41Z</time>
      </trkpt>
      <trkpt lat="45.7194757" lon="8.9539647">
        <ele>319.2950439</ele>
        <time>2008-12-21T09:25:52Z</time>
      </trkpt>
      <trkpt lat="45.7196689" lon="8.9538360">
        <ele>323.1403809</ele>
        <time>2008-12-21T09:26:01Z</time>
      </trkpt>
      <trkpt lat="45.7199049" lon="8.9536214">
        <ele>326.0241699</ele>
        <time>2008-12-21T09:26:11Z</time>
      </trkpt>
      <trkpt lat="45.7199264" lon="8.9533854">
        <ele>326.5048828</ele>
        <time>2008-12-21T09:26:17Z</time>
      </trkpt>
      <trkpt lat="45.7199478" lon="8.9531922">
        <ele>325.5435791</ele>
        <time>2008-12-21T09:26:21Z</time>
      </trkpt>
      <trkpt lat="45.7200766" lon="8.9531279">
        <ele>327.4661865</ele>
        <time>2008-12-21T09:26:26Z</time>
      </trkpt>
      <trkpt lat="45.7202697" lon="8.9530849">
        <ele>326.5048828</ele>
        <time>2008-12-21T09:26:34Z</time>
      </trkpt>
      <trkpt lat="45.7204199" lon="8.9531493">
        <ele>326.5048828</ele>
        <time>2008-12-21T09:26:42Z</time>
      </trkpt>
      <trkpt lat="45.7205057" lon="8.9532566">
        <ele>328.4276123</ele>
        <time>2008-12-21T09:26:50Z</time>
      </trkpt>
      <trkpt lat="45.7204843" lon="8.9532351">
        <ele>328.4276123</ele>
        <time>2008-12-21T09:27:20Z</time>
      </trkpt>
      <trkpt lat="45.7206559" lon="8.9531064">
        <ele>329.8695068</ele>
        <time>2008-12-21T09:27:30Z</time>
      </trkpt>
      <trkpt lat="45.7209349" lon="8.9529347">
        <ele>329.8695068</ele>
        <time>2008-12-21T09:27:43Z</time>
      </trkpt>
      <trkpt lat="45.7212782" lon="8.9526772">
        <ele>334.1954346</ele>
        <time>2008-12-21T09:27:58Z</time>
      </trkpt>
      <trkpt lat="45.7216430" lon="8.9526129">
        <ele>335.6373291</ele>
        <time>2008-12-21T09:28:12Z</time>
      </trkpt>
      <trkpt lat="45.7220507" lon="8.9526343">
        <ele>332.2728271</ele>
        <time>2008-12-21T09:28:27Z</time>
      </trkpt>
      <trkpt lat="45.7224584" lon="8.9526558">
        <ele>331.3115234</ele>
        <time>2008-12-21T09:28:40Z</time>
      </trkpt>
      <trkpt lat="45.7228661" lon="8.9526987">
        <ele>331.7921143</ele>
        <time>2008-12-21T09:28:52Z</time>
      </trkpt>
      <trkpt lat="45.7233381" lon="8.9527631">
        <ele>333.2341309</ele>
        <time>2008-12-21T09:29:05Z</time>
      </trkpt>
      <trkpt lat="45.7238531" lon="8.9528704">
        <ele>335.1567383</ele>
        <time>2008-12-21T09:29:20Z</time>
      </trkpt>
      <trkpt lat="45.7246041" lon="8.9530635">
        <ele>336.5988770</ele>
        <time>2008-12-21T09:29:41Z</time>
      </trkpt>
      <trkpt lat="45.7252264" lon="8.9531922">
        <ele>336.1181641</ele>
        <time>2008-12-21T09:29:55Z</time>
      </trkpt>
      <trkpt lat="45.7259774" lon="8.9531922">
        <ele>336.5988770</ele>
        <time>2008-12-21T09:30:10Z</time>
      </trkpt>
      <trkpt lat="45.7265782" lon="8.9533424">
        <ele>339.0020752</ele>
        <time>2008-12-21T09:30:23Z</time>
      </trkpt>
      <trkpt lat="45.7272220" lon="8.9536214">
        <ele>339.9633789</ele>
        <time>2008-12-21T09:30:39Z</time>
      </trkpt>
      <trkpt lat="45.7274365" lon="8.9536214">
        <ele>339.9633789</ele>
        <time>2008-12-21T09:30:44Z</time>
      </trkpt>
      <trkpt lat="45.7275438" lon="8.9535570">
        <ele>339.9633789</ele>
        <time>2008-12-21T09:30:46Z</time>
      </trkpt>
      <trkpt lat="45.7279944" lon="8.9534926">
        <ele>342.3666992</ele>
        <time>2008-12-21T09:30:56Z</time>
      </trkpt>
      <trkpt lat="45.7282519" lon="8.9534283">
        <ele>339.9633789</ele>
        <time>2008-12-21T09:31:04Z</time>
      </trkpt>
      <trkpt lat="45.7286382" lon="8.9532566">
        <ele>339.9633789</ele>
        <time>2008-12-21T09:31:16Z</time>
      </trkpt>
      <trkpt lat="45.7291746" lon="8.9531493">
        <ele>339.4826660</ele>
        <time>2008-12-21T09:31:30Z</time>
      </trkpt>
      <trkpt lat="45.7294321" lon="8.9531279">
        <ele>340.4440918</ele>
        <time>2008-12-21T09:31:36Z</time>
      </trkpt>
      <trkpt lat="45.7299256" lon="8.9532137">
        <ele>339.4826660</ele>
        <time>2008-12-21T09:31:47Z</time>
      </trkpt>
      <trkpt lat="45.7300115" lon="8.9532137">
        <ele>339.4826660</ele>
        <time>2008-12-21T09:31:49Z</time>
      </trkpt>
      <trkpt lat="45.7307410" lon="8.9531493">
        <ele>340.4440918</ele>
        <time>2008-12-21T09:32:07Z</time>
      </trkpt>
      <trkpt lat="45.7310843" lon="8.9531064">
        <ele>340.4440918</ele>
        <time>2008-12-21T09:32:16Z</time>
      </trkpt>
      <trkpt lat="45.7311273" lon="8.9532566">
        <ele>340.9246826</ele>
        <time>2008-12-21T09:32:20Z</time>
      </trkpt>
      <trkpt lat="45.7311273" lon="8.9539003">
        <ele>343.3278809</ele>
        <time>2008-12-21T09:32:32Z</time>
      </trkpt>
      <trkpt lat="45.7311273" lon="8.9544797">
        <ele>343.8085938</ele>
        <time>2008-12-21T09:32:44Z</time>
      </trkpt>
      <trkpt lat="45.7311058" lon="8.9546943">
        <ele>343.3278809</ele>
        <time>2008-12-21T09:32:49Z</time>
      </trkpt>
      <trkpt lat="45.7312131" lon="8.9547586">
        <ele>343.8085938</ele>
        <time>2008-12-21T09:32:54Z</time>
      </trkpt>
      <trkpt lat="45.7314706" lon="8.9547372">
        <ele>341.4052734</ele>
        <time>2008-12-21T09:33:04Z</time>
      </trkpt>
      <trkpt lat="45.7317710" lon="8.9547157">
        <ele>342.3666992</ele>
        <time>2008-12-21T09:33:15Z</time>
      </trkpt>
      <trkpt lat="45.7320714" lon="8.9547372">
        <ele>343.8085938</ele>
        <time>2008-12-21T09:33:24Z</time>
      </trkpt>
      <trkpt lat="45.7324576" lon="8.9546943">
        <ele>342.8472900</ele>
        <time>2008-12-21T09:33:35Z</time>
      </trkpt>
      <trkpt lat="45.7328439" lon="8.9546728">
        <ele>346.6926270</ele>
        <time>2008-12-21T09:33:46Z</time>
      </trkpt>
      <trkpt lat="45.7329297" lon="8.9546728">
        <ele>346.6926270</ele>
        <time>2008-12-21T09:33:48Z</time>
      </trkpt>
      <trkpt lat="45.7330370" lon="8.9547372">
        <ele>346.6926270</ele>
        <time>2008-12-21T09:33:52Z</time>
      </trkpt>
      <trkpt lat="45.7331014" lon="8.9547586">
        <ele>346.6926270</ele>
        <time>2008-12-21T09:33:53Z</time>
      </trkpt>
      <trkpt lat="45.7333374" lon="8.9546728">
        <ele>345.7313232</ele>
        <time>2008-12-21T09:33:59Z</time>
      </trkpt>
      <trkpt lat="45.7336807" lon="8.9546514">
        <ele>347.1732178</ele>
        <time>2008-12-21T09:34:08Z</time>
      </trkpt>
      <trkpt lat="45.7340884" lon="8.9546514">
        <ele>344.7700195</ele>
        <time>2008-12-21T09:34:20Z</time>
      </trkpt>
      <trkpt lat="45.7344961" lon="8.9546299">
        <ele>346.2120361</ele>
        <time>2008-12-21T09:34:38Z</time>
      </trkpt>
      <trkpt lat="45.7349896" lon="8.9545012">
        <ele>346.6926270</ele>
        <time>2008-12-21T09:34:54Z</time>
      </trkpt>
      <trkpt lat="45.7356334" lon="8.9540720">
        <ele>347.6539307</ele>
        <time>2008-12-21T09:35:16Z</time>
      </trkpt>
      <trkpt lat="45.7365131" lon="8.9536858">
        <ele>345.7313232</ele>
        <time>2008-12-21T09:35:28Z</time>
      </trkpt>
      <trkpt lat="45.7369637" lon="8.9537716">
        <ele>346.6926270</ele>
        <time>2008-12-21T09:35:43Z</time>
      </trkpt>
      <trkpt lat="45.7375860" lon="8.9537072">
        <ele>346.2120361</ele>
        <time>2008-12-21T09:36:04Z</time>
      </trkpt>
      <trkpt lat="45.7379293" lon="8.9537716">
        <ele>346.2120361</ele>
        <time>2008-12-21T09:36:14Z</time>
      </trkpt>
      <trkpt lat="45.7384658" lon="8.9539862">
        <ele>344.7700195</ele>
        <time>2008-12-21T09:36:30Z</time>
      </trkpt>
      <trkpt lat="45.7393456" lon="8.9544582">
        <ele>344.7700195</ele>
        <time>2008-12-21T09:36:56Z</time>
      </trkpt>
      <trkpt lat="45.7396460" lon="8.9545226">
        <ele>345.7313232</ele>
        <time>2008-12-21T09:37:05Z</time>
      </trkpt>
      <trkpt lat="45.7399678" lon="8.9545012">
        <ele>344.2894287</ele>
        <time>2008-12-21T09:37:15Z</time>
      </trkpt>
      <trkpt lat="45.7404613" lon="8.9545012">
        <ele>343.3278809</ele>
        <time>2008-12-21T09:37:29Z</time>
      </trkpt>
      <trkpt lat="45.7411265" lon="8.9545012">
        <ele>343.8085938</ele>
        <time>2008-12-21T09:37:46Z</time>
      </trkpt>
      <trkpt lat="45.7417917" lon="8.9544797">
        <ele>346.2120361</ele>
        <time>2008-12-21T09:38:01Z</time>
      </trkpt>
      <trkpt lat="45.7423711" lon="8.9543724">
        <ele>349.5765381</ele>
        <time>2008-12-21T09:38:15Z</time>
      </trkpt>
      <trkpt lat="45.7426715" lon="8.9543080">
        <ele>351.0184326</ele>
        <time>2008-12-21T09:38:23Z</time>
      </trkpt>
      <trkpt lat="45.7429075" lon="8.9542437">
        <ele>351.9798584</ele>
        <time>2008-12-21T09:38:29Z</time>
      </trkpt>
      <trkpt lat="45.7431650" lon="8.9542222">
        <ele>351.4991455</ele>
        <time>2008-12-21T09:38:36Z</time>
      </trkpt>
      <trkpt lat="45.7435942" lon="8.9540720">
        <ele>354.3831787</ele>
        <time>2008-12-21T09:38:48Z</time>
      </trkpt>
      <trkpt lat="45.7437229" lon="8.9539433">
        <ele>354.3831787</ele>
        <time>2008-12-21T09:38:53Z</time>
      </trkpt>
      <trkpt lat="45.7437444" lon="8.9537930">
        <ele>358.7089844</ele>
        <time>2008-12-21T09:39:00Z</time>
      </trkpt>
      <trkpt lat="45.7438302" lon="8.9533854">
        <ele>357.7478027</ele>
        <time>2008-12-21T09:39:12Z</time>
      </trkpt>
      <trkpt lat="45.7439375" lon="8.9530206">
        <ele>355.8251953</ele>
        <time>2008-12-21T09:39:19Z</time>
      </trkpt>
      <trkpt lat="45.7443023" lon="8.9524841">
        <ele>355.3444824</ele>
        <time>2008-12-21T09:39:29Z</time>
      </trkpt>
      <trkpt lat="45.7449031" lon="8.9518833">
        <ele>354.8637695</ele>
        <time>2008-12-21T09:39:41Z</time>
      </trkpt>
      <trkpt lat="45.7452250" lon="8.9516044">
        <ele>356.7863770</ele>
        <time>2008-12-21T09:39:50Z</time>
      </trkpt>
      <trkpt lat="45.7456112" lon="8.9512396">
        <ele>357.7478027</ele>
        <time>2008-12-21T09:40:03Z</time>
      </trkpt>
      <trkpt lat="45.7460403" lon="8.9508533">
        <ele>360.1511230</ele>
        <time>2008-12-21T09:40:18Z</time>
      </trkpt>
      <trkpt lat="45.7465124" lon="8.9505100">
        <ele>360.1511230</ele>
        <time>2008-12-21T09:40:35Z</time>
      </trkpt>
      <trkpt lat="45.7465982" lon="8.9502096">
        <ele>362.5543213</ele>
        <time>2008-12-21T09:40:43Z</time>
      </trkpt>
      <trkpt lat="45.7465982" lon="8.9498878">
        <ele>366.3995361</ele>
        <time>2008-12-21T09:40:55Z</time>
      </trkpt>
      <trkpt lat="45.7465124" lon="8.9498019">
        <ele>365.9189453</ele>
        <time>2008-12-21T09:41:08Z</time>
      </trkpt>
      <trkpt lat="45.7465124" lon="8.9497805">
        <ele>365.9189453</ele>
        <time>2008-12-21T09:41:09Z</time>
      </trkpt>
      <trkpt lat="45.7463837" lon="8.9493513">
        <ele>364.9576416</ele>
        <time>2008-12-21T09:41:27Z</time>
      </trkpt>
      <trkpt lat="45.7462978" lon="8.9490724">
        <ele>366.8802490</ele>
        <time>2008-12-21T09:41:37Z</time>
      </trkpt>
      <trkpt lat="45.7462764" lon="8.9490080">
        <ele>367.8415527</ele>
        <time>2008-12-21T09:41:46Z</time>
      </trkpt>
      <trkpt lat="45.7462335" lon="8.9489651">
        <ele>367.3609619</ele>
        <time>2008-12-21T09:41:58Z</time>
      </trkpt>
      <trkpt lat="45.7462335" lon="8.9489436">
        <ele>375.5321045</ele>
        <time>2008-12-21T09:42:12Z</time>
      </trkpt>
      <trkpt lat="45.7462764" lon="8.9488149">
        <ele>379.3774414</ele>
        <time>2008-12-21T09:42:47Z</time>
      </trkpt>
      <trkpt lat="45.7462335" lon="8.9487934">
        <ele>393.7972412</ele>
        <time>2008-12-21T09:43:40Z</time>
      </trkpt>
      <trkpt lat="45.7459974" lon="8.9487934">
        <ele>393.7972412</ele>
        <time>2008-12-21T09:43:50Z</time>
      </trkpt>
      <trkpt lat="45.7456112" lon="8.9486861">
        <ele>394.2779541</ele>
        <time>2008-12-21T09:44:03Z</time>
      </trkpt>
      <trkpt lat="45.7449245" lon="8.9481711">
        <ele>393.3165283</ele>
        <time>2008-12-21T09:44:15Z</time>
      </trkpt>
      <trkpt lat="45.7440877" lon="8.9481068">
        <ele>391.3937988</ele>
        <time>2008-12-21T09:44:36Z</time>
      </trkpt>
      <trkpt lat="45.7437444" lon="8.9480209">
        <ele>389.9519043</ele>
        <time>2008-12-21T09:44:49Z</time>
      </trkpt>
      <trkpt lat="45.7436585" lon="8.9479136">
        <ele>389.9519043</ele>
        <time>2008-12-21T09:45:03Z</time>
      </trkpt>
      <trkpt lat="45.7437015" lon="8.9478922">
        <ele>389.4711914</ele>
        <time>2008-12-21T09:45:07Z</time>
      </trkpt>
      <trkpt lat="45.7438946" lon="8.9476991">
        <ele>389.9519043</ele>
        <time>2008-12-21T09:45:20Z</time>
      </trkpt>
      <trkpt lat="45.7441306" lon="8.9472699">
        <ele>389.9519043</ele>
        <time>2008-12-21T09:45:38Z</time>
      </trkpt>
      <trkpt lat="45.7437444" lon="8.9456177">
        <ele>389.9519043</ele>
        <time>2008-12-21T09:45:58Z</time>
      </trkpt>
      <trkpt lat="45.7435298" lon="8.9452529">
        <ele>388.9906006</ele>
        <time>2008-12-21T09:46:12Z</time>
      </trkpt>
      <trkpt lat="45.7435298" lon="8.9451027">
        <ele>388.5100098</ele>
        <time>2008-12-21T09:46:19Z</time>
      </trkpt>
      <trkpt lat="45.7435298" lon="8.9450812">
        <ele>387.5485840</ele>
        <time>2008-12-21T09:46:23Z</time>
      </trkpt>
      <trkpt lat="45.7435298" lon="8.9449954">
        <ele>385.1453857</ele>
        <time>2008-12-21T09:46:28Z</time>
      </trkpt>
      <trkpt lat="45.7436585" lon="8.9448237">
        <ele>384.1840820</ele>
        <time>2008-12-21T09:46:33Z</time>
      </trkpt>
      <trkpt lat="45.7437015" lon="8.9443088">
        <ele>384.1840820</ele>
        <time>2008-12-21T09:46:45Z</time>
      </trkpt>
      <trkpt lat="45.7435513" lon="8.9441156">
        <ele>381.7806396</ele>
        <time>2008-12-21T09:46:53Z</time>
      </trkpt>
      <trkpt lat="45.7430363" lon="8.9438152">
        <ele>381.7806396</ele>
        <time>2008-12-21T09:47:12Z</time>
      </trkpt>
      <trkpt lat="45.7423925" lon="8.9436865">
        <ele>379.3774414</ele>
        <time>2008-12-21T09:47:28Z</time>
      </trkpt>
      <trkpt lat="45.7419205" lon="8.9433432">
        <ele>381.7806396</ele>
        <time>2008-12-21T09:47:42Z</time>
      </trkpt>
      <trkpt lat="45.7418776" lon="8.9433002">
        <ele>381.7806396</ele>
        <time>2008-12-21T09:47:44Z</time>
      </trkpt>
      <trkpt lat="45.7413840" lon="8.9429355">
        <ele>382.7420654</ele>
        <time>2008-12-21T09:47:51Z</time>
      </trkpt>
      <trkpt lat="45.7416630" lon="8.9425063">
        <ele>382.7420654</ele>
        <time>2008-12-21T09:47:54Z</time>
      </trkpt>
      <trkpt lat="45.7414055" lon="8.9426994">
        <ele>382.7420654</ele>
        <time>2008-12-21T09:48:07Z</time>
      </trkpt>
      <trkpt lat="45.7414055" lon="8.9426780">
        <ele>382.7420654</ele>
        <time>2008-12-21T09:48:09Z</time>
      </trkpt>
      <trkpt lat="45.7410622" lon="8.9425921">
        <ele>382.7420654</ele>
        <time>2008-12-21T09:48:21Z</time>
      </trkpt>
      <trkpt lat="45.7410622" lon="8.9425063">
        <ele>382.7420654</ele>
        <time>2008-12-21T09:48:30Z</time>
      </trkpt>
      <trkpt lat="45.7409978" lon="8.9423561">
        <ele>382.2613525</ele>
        <time>2008-12-21T09:48:51Z</time>
      </trkpt>
      <trkpt lat="45.7408905" lon="8.9422274">
        <ele>380.3387451</ele>
        <time>2008-12-21T09:49:06Z</time>
      </trkpt>
      <trkpt lat="45.7407832" lon="8.9421415">
        <ele>376.9742432</ele>
        <time>2008-12-21T09:49:17Z</time>
      </trkpt>
      <trkpt lat="45.7406330" lon="8.9420128">
        <ele>374.5708008</ele>
        <time>2008-12-21T09:49:30Z</time>
      </trkpt>
      <trkpt lat="45.7404828" lon="8.9418411">
        <ele>376.0128174</ele>
        <time>2008-12-21T09:49:46Z</time>
      </trkpt>
      <trkpt lat="45.7401824" lon="8.9416909">
        <ele>376.9742432</ele>
        <time>2008-12-21T09:50:03Z</time>
      </trkpt>
      <trkpt lat="45.7399464" lon="8.9414549">
        <ele>377.9354248</ele>
        <time>2008-12-21T09:50:15Z</time>
      </trkpt>
      <trkpt lat="45.7398176" lon="8.9412832">
        <ele>377.9354248</ele>
        <time>2008-12-21T09:50:25Z</time>
      </trkpt>
      <trkpt lat="45.7397532" lon="8.9410472">
        <ele>377.4548340</ele>
        <time>2008-12-21T09:50:40Z</time>
      </trkpt>
      <trkpt lat="45.7397747" lon="8.9409184">
        <ele>376.0128174</ele>
        <time>2008-12-21T09:50:49Z</time>
      </trkpt>
      <trkpt lat="45.7397747" lon="8.9405966">
        <ele>374.5708008</ele>
        <time>2008-12-21T09:51:00Z</time>
      </trkpt>
      <trkpt lat="45.7397747" lon="8.9402747">
        <ele>374.5708008</ele>
        <time>2008-12-21T09:51:12Z</time>
      </trkpt>
      <trkpt lat="45.7397747" lon="8.9401031">
        <ele>375.0515137</ele>
        <time>2008-12-21T09:51:24Z</time>
      </trkpt>
      <trkpt lat="45.7396245" lon="8.9401460">
        <ele>379.8580322</ele>
        <time>2008-12-21T09:53:57Z</time>
      </trkpt>
      <trkpt lat="45.7396460" lon="8.9401245">
        <ele>379.3774414</ele>
        <time>2008-12-21T09:53:59Z</time>
      </trkpt>
      <trkpt lat="45.7397103" lon="8.9398456">
        <ele>379.3774414</ele>
        <time>2008-12-21T09:54:11Z</time>
      </trkpt>
      <trkpt lat="45.7397318" lon="8.9395452">
        <ele>379.3774414</ele>
        <time>2008-12-21T09:54:19Z</time>
      </trkpt>
      <trkpt lat="45.7397318" lon="8.9390731">
        <ele>379.3774414</ele>
        <time>2008-12-21T09:54:30Z</time>
      </trkpt>
      <trkpt lat="45.7397103" lon="8.9390087">
        <ele>379.3774414</ele>
        <time>2008-12-21T09:54:32Z</time>
      </trkpt>
      <trkpt lat="45.7395816" lon="8.9389443">
        <ele>379.8580322</ele>
        <time>2008-12-21T09:54:36Z</time>
      </trkpt>
      <trkpt lat="45.7393670" lon="8.9390516">
        <ele>379.8580322</ele>
        <time>2008-12-21T09:54:42Z</time>
      </trkpt>
      <trkpt lat="45.7392168" lon="8.9389873">
        <ele>379.8580322</ele>
        <time>2008-12-21T09:54:46Z</time>
      </trkpt>
      <trkpt lat="45.7390451" lon="8.9390302">
        <ele>379.8580322</ele>
        <time>2008-12-21T09:54:51Z</time>
      </trkpt>
      <trkpt lat="45.7388091" lon="8.9391160">
        <ele>379.8580322</ele>
        <time>2008-12-21T09:54:57Z</time>
      </trkpt>
      <trkpt lat="45.7385945" lon="8.9388800">
        <ele>380.3387451</ele>
        <time>2008-12-21T09:55:04Z</time>
      </trkpt>
      <trkpt lat="45.7383370" lon="8.9384723">
        <ele>380.8194580</ele>
        <time>2008-12-21T09:55:16Z</time>
      </trkpt>
      <trkpt lat="45.7382298" lon="8.9379144">
        <ele>381.3000488</ele>
        <time>2008-12-21T09:55:27Z</time>
      </trkpt>
      <trkpt lat="45.7381439" lon="8.9375281">
        <ele>380.3387451</ele>
        <time>2008-12-21T09:55:36Z</time>
      </trkpt>
      <trkpt lat="45.7381654" lon="8.9372063">
        <ele>380.3387451</ele>
        <time>2008-12-21T09:55:41Z</time>
      </trkpt>
      <trkpt lat="45.7382941" lon="8.9369488">
        <ele>378.8968506</ele>
        <time>2008-12-21T09:55:49Z</time>
      </trkpt>
      <trkpt lat="45.7385302" lon="8.9364982">
        <ele>377.9354248</ele>
        <time>2008-12-21T09:55:56Z</time>
      </trkpt>
      <trkpt lat="45.7387447" lon="8.9363050">
        <ele>376.9742432</ele>
        <time>2008-12-21T09:56:03Z</time>
      </trkpt>
      <trkpt lat="45.7388735" lon="8.9359617">
        <ele>376.4935303</ele>
        <time>2008-12-21T09:56:11Z</time>
      </trkpt>
      <trkpt lat="45.7389164" lon="8.9358544">
        <ele>374.0900879</ele>
        <time>2008-12-21T09:56:19Z</time>
      </trkpt>
      <trkpt lat="45.7389164" lon="8.9358115">
        <ele>374.0900879</ele>
        <time>2008-12-21T09:56:27Z</time>
      </trkpt>
      <trkpt lat="45.7389164" lon="8.9357042">
        <ele>372.1674805</ele>
        <time>2008-12-21T09:56:43Z</time>
      </trkpt>
      <trkpt lat="45.7389164" lon="8.9356613">
        <ele>366.8802490</ele>
        <time>2008-12-21T09:56:59Z</time>
      </trkpt>
      <trkpt lat="45.7388306" lon="8.9355755">
        <ele>334.1954346</ele>
        <time>2008-12-21T09:58:18Z</time>
      </trkpt>
      <trkpt lat="45.7388949" lon="8.9354682">
        <ele>336.1181641</ele>
        <time>2008-12-21T09:58:24Z</time>
      </trkpt>
      <trkpt lat="45.7390022" lon="8.9353180">
        <ele>345.7313232</ele>
        <time>2008-12-21T09:58:36Z</time>
      </trkpt>
      <trkpt lat="45.7391095" lon="8.9351678">
        <ele>349.5765381</ele>
        <time>2008-12-21T09:58:48Z</time>
      </trkpt>
      <trkpt lat="45.7392383" lon="8.9349103">
        <ele>351.0184326</ele>
        <time>2008-12-21T09:59:04Z</time>
      </trkpt>
      <trkpt lat="45.7393885" lon="8.9347172">
        <ele>353.9025879</ele>
        <time>2008-12-21T09:59:16Z</time>
      </trkpt>
      <trkpt lat="45.7394314" lon="8.9345241">
        <ele>352.9411621</ele>
        <time>2008-12-21T09:59:24Z</time>
      </trkpt>
      <trkpt lat="45.7392597" lon="8.9341378">
        <ele>352.9411621</ele>
        <time>2008-12-21T09:59:34Z</time>
      </trkpt>
      <trkpt lat="45.7390237" lon="8.9337945">
        <ele>351.9798584</ele>
        <time>2008-12-21T09:59:44Z</time>
      </trkpt>
      <trkpt lat="45.7387447" lon="8.9336014">
        <ele>353.4218750</ele>
        <time>2008-12-21T09:59:56Z</time>
      </trkpt>
      <trkpt lat="45.7384872" lon="8.9334297">
        <ele>354.8637695</ele>
        <time>2008-12-21T10:00:07Z</time>
      </trkpt>
      <trkpt lat="45.7383156" lon="8.9333439">
        <ele>355.3444824</ele>
        <time>2008-12-21T10:00:17Z</time>
      </trkpt>
      <trkpt lat="45.7381010" lon="8.9331937">
        <ele>354.8637695</ele>
        <time>2008-12-21T10:00:30Z</time>
      </trkpt>
      <trkpt lat="45.7375646" lon="8.9327860">
        <ele>354.3831787</ele>
        <time>2008-12-21T10:00:50Z</time>
      </trkpt>
      <trkpt lat="45.7373071" lon="8.9327216">
        <ele>354.8637695</ele>
        <time>2008-12-21T10:01:00Z</time>
      </trkpt>
      <trkpt lat="45.7369852" lon="8.9326358">
        <ele>355.3444824</ele>
        <time>2008-12-21T10:01:13Z</time>
      </trkpt>
      <trkpt lat="45.7365990" lon="8.9323783">
        <ele>357.2670898</ele>
        <time>2008-12-21T10:01:29Z</time>
      </trkpt>
      <trkpt lat="45.7365775" lon="8.9323568">
        <ele>357.2670898</ele>
        <time>2008-12-21T10:01:30Z</time>
      </trkpt>
      <trkpt lat="45.7362342" lon="8.9325070">
        <ele>357.7478027</ele>
        <time>2008-12-21T10:01:35Z</time>
      </trkpt>
      <trkpt lat="45.7359338" lon="8.9326572">
        <ele>358.2283936</ele>
        <time>2008-12-21T10:01:39Z</time>
      </trkpt>
      <trkpt lat="45.7356548" lon="8.9327002">
        <ele>358.2283936</ele>
        <time>2008-12-21T10:01:44Z</time>
      </trkpt>
      <trkpt lat="45.7356548" lon="8.9324856">
        <ele>358.2283936</ele>
        <time>2008-12-21T10:01:50Z</time>
      </trkpt>
      <trkpt lat="45.7356548" lon="8.9324212">
        <ele>358.2283936</ele>
        <time>2008-12-21T10:01:52Z</time>
      </trkpt>
      <trkpt lat="45.7356334" lon="8.9320135">
        <ele>358.2283936</ele>
        <time>2008-12-21T10:02:03Z</time>
      </trkpt>
      <trkpt lat="45.7357621" lon="8.9316273">
        <ele>357.7478027</ele>
        <time>2008-12-21T10:02:13Z</time>
      </trkpt>
      <trkpt lat="45.7358909" lon="8.9313483">
        <ele>358.2283936</ele>
        <time>2008-12-21T10:02:20Z</time>
      </trkpt>
      <trkpt lat="45.7361054" lon="8.9311767">
        <ele>359.6704102</ele>
        <time>2008-12-21T10:02:24Z</time>
      </trkpt>
      <trkpt lat="45.7363200" lon="8.9310694">
        <ele>360.6317139</ele>
        <time>2008-12-21T10:02:30Z</time>
      </trkpt>
      <trkpt lat="45.7364917" lon="8.9309406">
        <ele>361.1124268</ele>
        <time>2008-12-21T10:02:36Z</time>
      </trkpt>
      <trkpt lat="45.7366204" lon="8.9305115">
        <ele>361.1124268</ele>
        <time>2008-12-21T10:02:47Z</time>
      </trkpt>
      <trkpt lat="45.7366204" lon="8.9300823">
        <ele>359.6704102</ele>
        <time>2008-12-21T10:02:57Z</time>
      </trkpt>
      <trkpt lat="45.7365131" lon="8.9295673">
        <ele>359.6704102</ele>
        <time>2008-12-21T10:03:08Z</time>
      </trkpt>
      <trkpt lat="45.7365561" lon="8.9290094">
        <ele>359.6704102</ele>
        <time>2008-12-21T10:03:21Z</time>
      </trkpt>
      <trkpt lat="45.7367706" lon="8.9287734">
        <ele>355.3444824</ele>
        <time>2008-12-21T10:03:30Z</time>
      </trkpt>
      <trkpt lat="45.7367921" lon="8.9287519">
        <ele>354.3831787</ele>
        <time>2008-12-21T10:03:31Z</time>
      </trkpt>
      <trkpt lat="45.7368350" lon="8.9287090">
        <ele>351.4991455</ele>
        <time>2008-12-21T10:03:37Z</time>
      </trkpt>
      <trkpt lat="45.7368565" lon="8.9287090">
        <ele>344.2894287</ele>
        <time>2008-12-21T10:03:42Z</time>
      </trkpt>
      <trkpt lat="45.7369208" lon="8.9286017">
        <ele>339.9633789</ele>
        <time>2008-12-21T10:03:51Z</time>
      </trkpt>
      <trkpt lat="45.7370067" lon="8.9281940">
        <ele>339.4826660</ele>
        <time>2008-12-21T10:03:58Z</time>
      </trkpt>
      <trkpt lat="45.7370281" lon="8.9275074">
        <ele>339.9633789</ele>
        <time>2008-12-21T10:04:09Z</time>
      </trkpt>
      <trkpt lat="45.7369423" lon="8.9267349">
        <ele>339.9633789</ele>
        <time>2008-12-21T10:04:21Z</time>
      </trkpt>
      <trkpt lat="45.7368350" lon="8.9260268">
        <ele>339.9633789</ele>
        <time>2008-12-21T10:04:32Z</time>
      </trkpt>
      <trkpt lat="45.7366633" lon="8.9252973">
        <ele>337.0794678</ele>
        <time>2008-12-21T10:04:42Z</time>
      </trkpt>
      <trkpt lat="45.7364058" lon="8.9248681">
        <ele>334.6761475</ele>
        <time>2008-12-21T10:04:50Z</time>
      </trkpt>
      <trkpt lat="45.7362556" lon="8.9247394">
        <ele>334.6761475</ele>
        <time>2008-12-21T10:04:55Z</time>
      </trkpt>
      <trkpt lat="45.7361054" lon="8.9246106">
        <ele>334.1954346</ele>
        <time>2008-12-21T10:05:03Z</time>
      </trkpt>
      <trkpt lat="45.7357621" lon="8.9244175">
        <ele>332.7535400</ele>
        <time>2008-12-21T10:05:15Z</time>
      </trkpt>
      <trkpt lat="45.7355475" lon="8.9245248">
        <ele>332.7535400</ele>
        <time>2008-12-21T10:05:24Z</time>
      </trkpt>
      <trkpt lat="45.7352471" lon="8.9248252">
        <ele>332.7535400</ele>
        <time>2008-12-21T10:05:40Z</time>
      </trkpt>
      <trkpt lat="45.7349682" lon="8.9248466">
        <ele>332.7535400</ele>
        <time>2008-12-21T10:05:54Z</time>
      </trkpt>
      <trkpt lat="45.7347751" lon="8.9247823">
        <ele>332.7535400</ele>
        <time>2008-12-21T10:06:05Z</time>
      </trkpt>
      <trkpt lat="45.7345390" lon="8.9245892">
        <ele>332.7535400</ele>
        <time>2008-12-21T10:06:17Z</time>
      </trkpt>
      <trkpt lat="45.7338738" lon="8.9241815">
        <ele>332.7535400</ele>
        <time>2008-12-21T10:06:40Z</time>
      </trkpt>
      <trkpt lat="45.7325220" lon="8.9241600">
        <ele>332.7535400</ele>
        <time>2008-12-21T10:07:02Z</time>
      </trkpt>
      <trkpt lat="45.7322431" lon="8.9240313">
        <ele>333.2341309</ele>
        <time>2008-12-21T10:07:13Z</time>
      </trkpt>
      <trkpt lat="45.7321358" lon="8.9239669">
        <ele>333.2341309</ele>
        <time>2008-12-21T10:07:16Z</time>
      </trkpt>
      <trkpt lat="45.7320929" lon="8.9240098">
        <ele>333.2341309</ele>
        <time>2008-12-21T10:07:20Z</time>
      </trkpt>
      <trkpt lat="45.7319427" lon="8.9239883">
        <ele>331.7921143</ele>
        <time>2008-12-21T10:07:28Z</time>
      </trkpt>
      <trkpt lat="45.7317710" lon="8.9239454">
        <ele>331.3115234</ele>
        <time>2008-12-21T10:07:34Z</time>
      </trkpt>
      <trkpt lat="45.7313204" lon="8.9238596">
        <ele>330.8309326</ele>
        <time>2008-12-21T10:07:44Z</time>
      </trkpt>
      <trkpt lat="45.7309127" lon="8.9239025">
        <ele>330.8309326</ele>
        <time>2008-12-21T10:07:55Z</time>
      </trkpt>
      <trkpt lat="45.7306123" lon="8.9240313">
        <ele>332.2728271</ele>
        <time>2008-12-21T10:08:05Z</time>
      </trkpt>
      <trkpt lat="45.7303762" lon="8.9240527">
        <ele>329.3889160</ele>
        <time>2008-12-21T10:08:15Z</time>
      </trkpt>
      <trkpt lat="45.7302475" lon="8.9239883">
        <ele>329.3889160</ele>
        <time>2008-12-21T10:08:21Z</time>
      </trkpt>
      <trkpt lat="45.7302046" lon="8.9240527">
        <ele>329.3889160</ele>
        <time>2008-12-21T10:08:23Z</time>
      </trkpt>
      <trkpt lat="45.7301617" lon="8.9241600">
        <ele>329.3889160</ele>
        <time>2008-12-21T10:08:27Z</time>
      </trkpt>
      <trkpt lat="45.7300758" lon="8.9242029">
        <ele>329.3889160</ele>
        <time>2008-12-21T10:08:34Z</time>
      </trkpt>
      <trkpt lat="45.7297969" lon="8.9241815">
        <ele>330.3502197</ele>
        <time>2008-12-21T10:08:48Z</time>
      </trkpt>
      <trkpt lat="45.7296467" lon="8.9241385">
        <ele>329.8695068</ele>
        <time>2008-12-21T10:09:55Z</time>
      </trkpt>
      <trkpt lat="45.7295179" lon="8.9240098">
        <ele>329.8695068</ele>
        <time>2008-12-21T10:10:05Z</time>
      </trkpt>
      <trkpt lat="45.7294965" lon="8.9239669">
        <ele>330.3502197</ele>
        <time>2008-12-21T10:10:10Z</time>
      </trkpt>
      <trkpt lat="45.7292819" lon="8.9240956">
        <ele>330.3502197</ele>
        <time>2008-12-21T10:10:19Z</time>
      </trkpt>
      <trkpt lat="45.7288957" lon="8.9242673">
        <ele>330.3502197</ele>
        <time>2008-12-21T10:10:32Z</time>
      </trkpt>
      <trkpt lat="45.7285738" lon="8.9243531">
        <ele>329.3889160</ele>
        <time>2008-12-21T10:10:44Z</time>
      </trkpt>
      <trkpt lat="45.7281446" lon="8.9243531">
        <ele>329.3889160</ele>
        <time>2008-12-21T10:10:59Z</time>
      </trkpt>
      <trkpt lat="45.7268786" lon="8.9230013">
        <ele>328.4276123</ele>
        <time>2008-12-21T10:11:19Z</time>
      </trkpt>
      <trkpt lat="45.7265353" lon="8.9226151">
        <ele>325.0629883</ele>
        <time>2008-12-21T10:11:31Z</time>
      </trkpt>
      <trkpt lat="45.7260633" lon="8.9224648">
        <ele>322.6596680</ele>
        <time>2008-12-21T10:11:42Z</time>
      </trkpt>
      <trkpt lat="45.7252264" lon="8.9223361">
        <ele>320.2563477</ele>
        <time>2008-12-21T10:12:01Z</time>
      </trkpt>
      <trkpt lat="45.7249045" lon="8.9223361">
        <ele>321.2177734</ele>
        <time>2008-12-21T10:12:10Z</time>
      </trkpt>
      <trkpt lat="45.7245398" lon="8.9223361">
        <ele>320.7370605</ele>
        <time>2008-12-21T10:12:23Z</time>
      </trkpt>
      <trkpt lat="45.7244325" lon="8.9223361">
        <ele>322.6596680</ele>
        <time>2008-12-21T10:12:34Z</time>
      </trkpt>
      <trkpt lat="45.7243896" lon="8.9222717">
        <ele>323.6209717</ele>
        <time>2008-12-21T10:12:43Z</time>
      </trkpt>
      <trkpt lat="45.7243681" lon="8.9222074">
        <ele>324.1015625</ele>
        <time>2008-12-21T10:12:48Z</time>
      </trkpt>
      <trkpt lat="45.7243252" lon="8.9221644">
        <ele>325.5435791</ele>
        <time>2008-12-21T10:12:59Z</time>
      </trkpt>
      <trkpt lat="45.7243252" lon="8.9222717">
        <ele>325.5435791</ele>
        <time>2008-12-21T10:15:24Z</time>
      </trkpt>
      <trkpt lat="45.7241535" lon="8.9224005">
        <ele>325.0629883</ele>
        <time>2008-12-21T10:15:33Z</time>
      </trkpt>
      <trkpt lat="45.7238102" lon="8.9227009">
        <ele>323.1403809</ele>
        <time>2008-12-21T10:15:40Z</time>
      </trkpt>
      <trkpt lat="45.7233596" lon="8.9230013">
        <ele>321.2177734</ele>
        <time>2008-12-21T10:15:48Z</time>
      </trkpt>
      <trkpt lat="45.7227588" lon="8.9231730">
        <ele>319.7756348</ele>
        <time>2008-12-21T10:15:56Z</time>
      </trkpt>
      <trkpt lat="45.7219219" lon="8.9232159">
        <ele>319.2950439</ele>
        <time>2008-12-21T10:16:06Z</time>
      </trkpt>
      <trkpt lat="45.7212782" lon="8.9232588">
        <ele>320.7370605</ele>
        <time>2008-12-21T10:16:15Z</time>
      </trkpt>
      <trkpt lat="45.7206988" lon="8.9234304">
        <ele>321.6983643</ele>
        <time>2008-12-21T10:16:26Z</time>
      </trkpt>
      <trkpt lat="45.7201409" lon="8.9237309">
        <ele>322.1789551</ele>
        <time>2008-12-21T10:16:39Z</time>
      </trkpt>
      <trkpt lat="45.7199478" lon="8.9239240">
        <ele>321.2177734</ele>
        <time>2008-12-21T10:16:46Z</time>
      </trkpt>
      <trkpt lat="45.7195830" lon="8.9244175">
        <ele>320.7370605</ele>
        <time>2008-12-21T10:17:05Z</time>
      </trkpt>
      <trkpt lat="45.7197762" lon="8.9246535">
        <ele>320.7370605</ele>
        <time>2008-12-21T10:17:17Z</time>
      </trkpt>
      <trkpt lat="45.7197762" lon="8.9246535">
        <ele>320.7370605</ele>
        <time>2008-12-21T10:17:18Z</time>
      </trkpt>
      <trkpt lat="45.7200766" lon="8.9247823">
        <ele>320.7370605</ele>
        <time>2008-12-21T10:17:31Z</time>
      </trkpt>
      <trkpt lat="45.7217288" lon="8.9248466">
        <ele>321.2177734</ele>
        <time>2008-12-21T10:17:50Z</time>
      </trkpt>
      <trkpt lat="45.7220936" lon="8.9249754">
        <ele>321.6983643</ele>
        <time>2008-12-21T10:18:03Z</time>
      </trkpt>
      <trkpt lat="45.7222652" lon="8.9251685">
        <ele>324.1015625</ele>
        <time>2008-12-21T10:18:20Z</time>
      </trkpt>
      <trkpt lat="45.7224584" lon="8.9255333">
        <ele>326.5048828</ele>
        <time>2008-12-21T10:18:37Z</time>
      </trkpt>
      <trkpt lat="45.7226515" lon="8.9259195">
        <ele>328.9083252</ele>
        <time>2008-12-21T10:18:54Z</time>
      </trkpt>
      <trkpt lat="45.7227373" lon="8.9261770">
        <ele>327.9467773</ele>
        <time>2008-12-21T10:19:07Z</time>
      </trkpt>
      <trkpt lat="45.7228231" lon="8.9264774">
        <ele>329.3889160</ele>
        <time>2008-12-21T10:19:23Z</time>
      </trkpt>
      <trkpt lat="45.7227802" lon="8.9266062">
        <ele>330.8309326</ele>
        <time>2008-12-21T10:19:34Z</time>
      </trkpt>
      <trkpt lat="45.7227373" lon="8.9266276">
        <ele>330.3502197</ele>
        <time>2008-12-21T10:19:39Z</time>
      </trkpt>
      <trkpt lat="45.7224369" lon="8.9267349">
        <ele>334.1954346</ele>
        <time>2008-12-21T10:19:55Z</time>
      </trkpt>
      <trkpt lat="45.7222438" lon="8.9267564">
        <ele>333.2341309</ele>
        <time>2008-12-21T10:20:06Z</time>
      </trkpt>
      <trkpt lat="45.7219648" lon="8.9267564">
        <ele>335.1567383</ele>
        <time>2008-12-21T10:20:21Z</time>
      </trkpt>
      <trkpt lat="45.7215786" lon="8.9266276">
        <ele>334.1954346</ele>
        <time>2008-12-21T10:20:41Z</time>
      </trkpt>
      <trkpt lat="45.7212996" lon="8.9264989">
        <ele>334.1954346</ele>
        <time>2008-12-21T10:20:53Z</time>
      </trkpt>
      <trkpt lat="45.7209349" lon="8.9262843">
        <ele>334.1954346</ele>
        <time>2008-12-21T10:21:07Z</time>
      </trkpt>
      <trkpt lat="45.7206559" lon="8.9261341">
        <ele>334.1954346</ele>
        <time>2008-12-21T10:21:19Z</time>
      </trkpt>
      <trkpt lat="45.7206345" lon="8.9261127">
        <ele>333.7147217</ele>
        <time>2008-12-21T10:21:26Z</time>
      </trkpt>
      <trkpt lat="45.7205486" lon="8.9260697">
        <ele>333.7147217</ele>
        <time>2008-12-21T10:21:36Z</time>
      </trkpt>
      <trkpt lat="45.7203341" lon="8.9260054">
        <ele>334.6761475</ele>
        <time>2008-12-21T10:21:47Z</time>
      </trkpt>
      <trkpt lat="45.7200336" lon="8.9260483">
        <ele>335.1567383</ele>
        <time>2008-12-21T10:21:57Z</time>
      </trkpt>
      <trkpt lat="45.7199693" lon="8.9260483">
        <ele>334.6761475</ele>
        <time>2008-12-21T10:21:59Z</time>
      </trkpt>
      <trkpt lat="45.7199049" lon="8.9259624">
        <ele>332.2728271</ele>
        <time>2008-12-21T10:22:06Z</time>
      </trkpt>
      <trkpt lat="45.7198834" lon="8.9260054">
        <ele>330.8309326</ele>
        <time>2008-12-21T10:22:17Z</time>
      </trkpt>
      <trkpt lat="45.7196903" lon="8.9259410">
        <ele>331.7921143</ele>
        <time>2008-12-21T10:23:11Z</time>
      </trkpt>
      <trkpt lat="45.7191753" lon="8.9257479">
        <ele>331.7921143</ele>
        <time>2008-12-21T10:23:38Z</time>
      </trkpt>
      <trkpt lat="45.7174802" lon="8.9249110">
        <ele>331.7921143</ele>
        <time>2008-12-21T10:24:04Z</time>
      </trkpt>
      <trkpt lat="45.7172871" lon="8.9249110">
        <ele>331.7921143</ele>
        <time>2008-12-21T10:24:18Z</time>
      </trkpt>
      <trkpt lat="45.7170510" lon="8.9247394">
        <ele>330.3502197</ele>
        <time>2008-12-21T10:24:31Z</time>
      </trkpt>
      <trkpt lat="45.7169008" lon="8.9245462">
        <ele>330.3502197</ele>
        <time>2008-12-21T10:24:45Z</time>
      </trkpt>
      <trkpt lat="45.7166433" lon="8.9244604">
        <ele>329.8695068</ele>
        <time>2008-12-21T10:25:08Z</time>
      </trkpt>
      <trkpt lat="45.7165575" lon="8.9243960">
        <ele>329.8695068</ele>
        <time>2008-12-21T10:25:20Z</time>
      </trkpt>
      <trkpt lat="45.7165146" lon="8.9244390">
        <ele>328.4276123</ele>
        <time>2008-12-21T10:25:37Z</time>
      </trkpt>
      <trkpt lat="45.7164931" lon="8.9244175">
        <ele>329.3889160</ele>
        <time>2008-12-21T10:25:55Z</time>
      </trkpt>
      <trkpt lat="45.7163858" lon="8.9243102">
        <ele>329.3889160</ele>
        <time>2008-12-21T10:26:14Z</time>
      </trkpt>
      <trkpt lat="45.7153559" lon="8.9240313">
        <ele>326.5048828</ele>
        <time>2008-12-21T10:27:32Z</time>
      </trkpt>
      <trkpt lat="45.7159996" lon="8.9241600">
        <ele>326.0241699</ele>
        <time>2008-12-21T10:27:59Z</time>
      </trkpt>
      <trkpt lat="45.7160211" lon="8.9244604">
        <ele>325.5435791</ele>
        <time>2008-12-21T10:28:16Z</time>
      </trkpt>
      <trkpt lat="45.7161069" lon="8.9246750">
        <ele>325.5435791</ele>
        <time>2008-12-21T10:28:35Z</time>
      </trkpt>
      <trkpt lat="45.7161283" lon="8.9246964">
        <ele>325.5435791</ele>
        <time>2008-12-21T10:28:36Z</time>
      </trkpt>
      <trkpt lat="45.7160854" lon="8.9249754">
        <ele>319.7756348</ele>
        <time>2008-12-21T10:28:52Z</time>
      </trkpt>
      <trkpt lat="45.7159996" lon="8.9251256">
        <ele>314.4884033</ele>
        <time>2008-12-21T10:29:01Z</time>
      </trkpt>
      <trkpt lat="45.7159138" lon="8.9254045">
        <ele>315.9304199</ele>
        <time>2008-12-21T10:29:18Z</time>
      </trkpt>
      <trkpt lat="45.7157421" lon="8.9257264">
        <ele>315.4498291</ele>
        <time>2008-12-21T10:29:40Z</time>
      </trkpt>
      <trkpt lat="45.7156348" lon="8.9260697">
        <ele>317.3724365</ele>
        <time>2008-12-21T10:30:02Z</time>
      </trkpt>
      <trkpt lat="45.7156563" lon="8.9261770">
        <ele>317.8530273</ele>
        <time>2008-12-21T10:30:08Z</time>
      </trkpt>
      <trkpt lat="45.7156992" lon="8.9262414">
        <ele>317.8530273</ele>
        <time>2008-12-21T10:30:12Z</time>
      </trkpt>
      <trkpt lat="45.7158065" lon="8.9265633">
        <ele>317.8530273</ele>
        <time>2008-12-21T10:30:35Z</time>
      </trkpt>
      <trkpt lat="45.7157421" lon="8.9268422">
        <ele>322.6596680</ele>
        <time>2008-12-21T10:30:50Z</time>
      </trkpt>
      <trkpt lat="45.7155061" lon="8.9270139">
        <ele>322.6596680</ele>
        <time>2008-12-21T10:31:05Z</time>
      </trkpt>
      <trkpt lat="45.7152057" lon="8.9268851">
        <ele>323.1403809</ele>
        <time>2008-12-21T10:31:18Z</time>
      </trkpt>
      <trkpt lat="45.7148838" lon="8.9267564">
        <ele>324.1015625</ele>
        <time>2008-12-21T10:31:31Z</time>
      </trkpt>
      <trkpt lat="45.7145834" lon="8.9267349">
        <ele>324.5822754</ele>
        <time>2008-12-21T10:31:39Z</time>
      </trkpt>
      <trkpt lat="45.7140255" lon="8.9267349">
        <ele>323.1403809</ele>
        <time>2008-12-21T10:31:51Z</time>
      </trkpt>
      <trkpt lat="45.7138753" lon="8.9267564">
        <ele>323.1403809</ele>
        <time>2008-12-21T10:31:55Z</time>
      </trkpt>
      <trkpt lat="45.7137036" lon="8.9268208">
        <ele>323.6209717</ele>
        <time>2008-12-21T10:31:59Z</time>
      </trkpt>
      <trkpt lat="45.7136607" lon="8.9267993">
        <ele>324.1015625</ele>
        <time>2008-12-21T10:32:01Z</time>
      </trkpt>
      <trkpt lat="45.7135105" lon="8.9267778">
        <ele>324.5822754</ele>
        <time>2008-12-21T10:32:06Z</time>
      </trkpt>
      <trkpt lat="45.7134247" lon="8.9267135">
        <ele>324.5822754</ele>
        <time>2008-12-21T10:32:12Z</time>
      </trkpt>
      <trkpt lat="45.7133818" lon="8.9266062">
        <ele>324.5822754</ele>
        <time>2008-12-21T10:32:16Z</time>
      </trkpt>
      <trkpt lat="45.7131672" lon="8.9264560">
        <ele>325.0629883</ele>
        <time>2008-12-21T10:32:23Z</time>
      </trkpt>
      <trkpt lat="45.7126093" lon="8.9264560">
        <ele>323.1403809</ele>
        <time>2008-12-21T10:32:35Z</time>
      </trkpt>
      <trkpt lat="45.7125664" lon="8.9264560">
        <ele>323.1403809</ele>
        <time>2008-12-21T10:32:36Z</time>
      </trkpt>
      <trkpt lat="45.7123518" lon="8.9263272">
        <ele>323.1403809</ele>
        <time>2008-12-21T10:32:48Z</time>
      </trkpt>
      <trkpt lat="45.7121587" lon="8.9258337">
        <ele>321.6983643</ele>
        <time>2008-12-21T10:33:02Z</time>
      </trkpt>
      <trkpt lat="45.7120943" lon="8.9257050">
        <ele>321.2177734</ele>
        <time>2008-12-21T10:33:07Z</time>
      </trkpt>
      <trkpt lat="45.7120728" lon="8.9256191">
        <ele>321.6983643</ele>
        <time>2008-12-21T10:33:14Z</time>
      </trkpt>
      <trkpt lat="45.7119441" lon="8.9256191">
        <ele>320.7370605</ele>
        <time>2008-12-21T10:33:20Z</time>
      </trkpt>
      <trkpt lat="45.7118154" lon="8.9255977">
        <ele>320.7370605</ele>
        <time>2008-12-21T10:33:23Z</time>
      </trkpt>
      <trkpt lat="45.7113862" lon="8.9255548">
        <ele>318.8143311</ele>
        <time>2008-12-21T10:33:34Z</time>
      </trkpt>
      <trkpt lat="45.7110643" lon="8.9255333">
        <ele>318.3336182</ele>
        <time>2008-12-21T10:33:42Z</time>
      </trkpt>
      <trkpt lat="45.7109356" lon="8.9257479">
        <ele>318.3336182</ele>
        <time>2008-12-21T10:33:47Z</time>
      </trkpt>
      <trkpt lat="45.7109356" lon="8.9258122">
        <ele>318.3336182</ele>
        <time>2008-12-21T10:33:48Z</time>
      </trkpt>
      <trkpt lat="45.7109356" lon="8.9261985">
        <ele>318.3336182</ele>
        <time>2008-12-21T10:33:56Z</time>
      </trkpt>
      <trkpt lat="45.7108068" lon="8.9265847">
        <ele>318.3336182</ele>
        <time>2008-12-21T10:34:05Z</time>
      </trkpt>
      <trkpt lat="45.7105279" lon="8.9268422">
        <ele>317.8530273</ele>
        <time>2008-12-21T10:34:14Z</time>
      </trkpt>
      <trkpt lat="45.7103992" lon="8.9269280">
        <ele>316.8917236</ele>
        <time>2008-12-21T10:34:18Z</time>
      </trkpt>
      <trkpt lat="45.7103348" lon="8.9269495">
        <ele>316.8917236</ele>
        <time>2008-12-21T10:34:20Z</time>
      </trkpt>
      <trkpt lat="45.7101631" lon="8.9269495">
        <ele>316.4110107</ele>
        <time>2008-12-21T10:34:26Z</time>
      </trkpt>
      <trkpt lat="45.7100558" lon="8.9270139">
        <ele>317.3724365</ele>
        <time>2008-12-21T10:34:34Z</time>
      </trkpt>
      <trkpt lat="45.7100558" lon="8.9269924">
        <ele>314.0078125</ele>
        <time>2008-12-21T10:34:42Z</time>
      </trkpt>
      <trkpt lat="45.7100344" lon="8.9269924">
        <ele>312.0852051</ele>
        <time>2008-12-21T10:34:50Z</time>
      </trkpt>
      <trkpt lat="45.7099700" lon="8.9270139">
        <ele>312.0852051</ele>
        <time>2008-12-21T10:35:00Z</time>
      </trkpt>
      <trkpt lat="45.7097983" lon="8.9271212">
        <ele>311.1237793</ele>
        <time>2008-12-21T10:35:07Z</time>
      </trkpt>
      <trkpt lat="45.7097340" lon="8.9271641">
        <ele>311.1237793</ele>
        <time>2008-12-21T10:35:08Z</time>
      </trkpt>
      <trkpt lat="45.7094550" lon="8.9273143">
        <ele>311.1237793</ele>
        <time>2008-12-21T10:35:13Z</time>
      </trkpt>
      <trkpt lat="45.7093263" lon="8.9273572">
        <ele>311.1237793</ele>
        <time>2008-12-21T10:35:15Z</time>
      </trkpt>
      <trkpt lat="45.7091975" lon="8.9274216">
        <ele>311.1237793</ele>
        <time>2008-12-21T10:35:17Z</time>
      </trkpt>
      <trkpt lat="45.7090688" lon="8.9275289">
        <ele>311.1237793</ele>
        <time>2008-12-21T10:35:19Z</time>
      </trkpt>
      <trkpt lat="45.7081032" lon="8.9279366">
        <ele>311.1237793</ele>
        <time>2008-12-21T10:35:34Z</time>
      </trkpt>
      <trkpt lat="45.7076097" lon="8.9279580">
        <ele>309.6818848</ele>
        <time>2008-12-21T10:35:42Z</time>
      </trkpt>
      <trkpt lat="45.7069874" lon="8.9277220">
        <ele>304.3946533</ele>
        <time>2008-12-21T10:35:53Z</time>
      </trkpt>
      <trkpt lat="45.7068801" lon="8.9277864">
        <ele>302.9525146</ele>
        <time>2008-12-21T10:35:58Z</time>
      </trkpt>
      <trkpt lat="45.7068801" lon="8.9278078">
        <ele>302.9525146</ele>
        <time>2008-12-21T10:35:59Z</time>
      </trkpt>
      <trkpt lat="45.7070088" lon="8.9280868">
        <ele>302.4719238</ele>
        <time>2008-12-21T10:36:07Z</time>
      </trkpt>
      <trkpt lat="45.7072020" lon="8.9287090">
        <ele>303.4332275</ele>
        <time>2008-12-21T10:36:21Z</time>
      </trkpt>
      <trkpt lat="45.7075238" lon="8.9294815">
        <ele>304.8752441</ele>
        <time>2008-12-21T10:36:37Z</time>
      </trkpt>
      <trkpt lat="45.7076526" lon="8.9300823">
        <ele>304.3946533</ele>
        <time>2008-12-21T10:36:50Z</time>
      </trkpt>
      <trkpt lat="45.7077599" lon="8.9306188">
        <ele>304.3946533</ele>
        <time>2008-12-21T10:37:02Z</time>
      </trkpt>
      <trkpt lat="45.7080173" lon="8.9312625">
        <ele>304.3946533</ele>
        <time>2008-12-21T10:37:19Z</time>
      </trkpt>
      <trkpt lat="45.7082319" lon="8.9316487">
        <ele>305.8366699</ele>
        <time>2008-12-21T10:37:35Z</time>
      </trkpt>
      <trkpt lat="45.7084465" lon="8.9317989">
        <ele>306.7978516</ele>
        <time>2008-12-21T10:37:49Z</time>
      </trkpt>
      <trkpt lat="45.7088971" lon="8.9318204">
        <ele>308.7204590</ele>
        <time>2008-12-21T10:38:12Z</time>
      </trkpt>
      <trkpt lat="45.7092619" lon="8.9317775">
        <ele>312.0852051</ele>
        <time>2008-12-21T10:38:26Z</time>
      </trkpt>
      <trkpt lat="45.7096481" lon="8.9317346">
        <ele>313.0465088</ele>
        <time>2008-12-21T10:38:41Z</time>
      </trkpt>
      <trkpt lat="45.7102060" lon="8.9317346">
        <ele>314.4884033</ele>
        <time>2008-12-21T10:39:00Z</time>
      </trkpt>
      <trkpt lat="45.7105708" lon="8.9318633">
        <ele>316.4110107</ele>
        <time>2008-12-21T10:39:10Z</time>
      </trkpt>
      <trkpt lat="45.7108283" lon="8.9320993">
        <ele>316.8917236</ele>
        <time>2008-12-21T10:39:18Z</time>
      </trkpt>
      <trkpt lat="45.7111287" lon="8.9323997">
        <ele>316.8917236</ele>
        <time>2008-12-21T10:39:28Z</time>
      </trkpt>
      <trkpt lat="45.7111931" lon="8.9323783">
        <ele>316.4110107</ele>
        <time>2008-12-21T10:39:30Z</time>
      </trkpt>
      <trkpt lat="45.7113004" lon="8.9323139">
        <ele>316.4110107</ele>
        <time>2008-12-21T10:39:36Z</time>
      </trkpt>
      <trkpt lat="45.7113218" lon="8.9323139">
        <ele>315.4498291</ele>
        <time>2008-12-21T10:39:48Z</time>
      </trkpt>
      <trkpt lat="45.7114506" lon="8.9322495">
        <ele>312.0852051</ele>
        <time>2008-12-21T10:43:24Z</time>
      </trkpt>
      <trkpt lat="45.7116222" lon="8.9321208">
        <ele>314.0078125</ele>
        <time>2008-12-21T10:43:31Z</time>
      </trkpt>
      <trkpt lat="45.7120085" lon="8.9318419">
        <ele>314.9691162</ele>
        <time>2008-12-21T10:43:45Z</time>
      </trkpt>
      <trkpt lat="45.7122660" lon="8.9316487">
        <ele>314.9691162</ele>
        <time>2008-12-21T10:43:55Z</time>
      </trkpt>
      <trkpt lat="45.7127810" lon="8.9317560">
        <ele>314.9691162</ele>
        <time>2008-12-21T10:44:14Z</time>
      </trkpt>
      <trkpt lat="45.7131886" lon="8.9318204">
        <ele>315.4498291</ele>
        <time>2008-12-21T10:44:31Z</time>
      </trkpt>
      <trkpt lat="45.7134032" lon="8.9318633">
        <ele>315.4498291</ele>
        <time>2008-12-21T10:44:42Z</time>
      </trkpt>
      <trkpt lat="45.7139182" lon="8.9319277">
        <ele>314.9691162</ele>
        <time>2008-12-21T10:45:02Z</time>
      </trkpt>
      <trkpt lat="45.7147765" lon="8.9318419">
        <ele>314.9691162</ele>
        <time>2008-12-21T10:45:27Z</time>
      </trkpt>
      <trkpt lat="45.7154846" lon="8.9316487">
        <ele>314.9691162</ele>
        <time>2008-12-21T10:45:49Z</time>
      </trkpt>
      <trkpt lat="45.7161498" lon="8.9314985">
        <ele>315.4498291</ele>
        <time>2008-12-21T10:46:11Z</time>
      </trkpt>
      <trkpt lat="45.7168579" lon="8.9312840">
        <ele>315.4498291</ele>
        <time>2008-12-21T10:46:35Z</time>
      </trkpt>
      <trkpt lat="45.7174373" lon="8.9311552">
        <ele>315.4498291</ele>
        <time>2008-12-21T10:46:54Z</time>
      </trkpt>
      <trkpt lat="45.7180381" lon="8.9309835">
        <ele>315.4498291</ele>
        <time>2008-12-21T10:47:15Z</time>
      </trkpt>
      <trkpt lat="45.7183814" lon="8.9309192">
        <ele>315.4498291</ele>
        <time>2008-12-21T10:47:31Z</time>
      </trkpt>
      <trkpt lat="45.7187033" lon="8.9308977">
        <ele>315.4498291</ele>
        <time>2008-12-21T10:47:47Z</time>
      </trkpt>
      <trkpt lat="45.7190895" lon="8.9309192">
        <ele>316.4110107</ele>
        <time>2008-12-21T10:48:04Z</time>
      </trkpt>
      <trkpt lat="45.7194114" lon="8.9309621">
        <ele>314.9691162</ele>
        <time>2008-12-21T10:48:22Z</time>
      </trkpt>
      <trkpt lat="45.7199049" lon="8.9311123">
        <ele>314.9691162</ele>
        <time>2008-12-21T10:48:47Z</time>
      </trkpt>
      <trkpt lat="45.7201838" lon="8.9311981">
        <ele>316.4110107</ele>
        <time>2008-12-21T10:49:01Z</time>
      </trkpt>
      <trkpt lat="45.7204628" lon="8.9312625">
        <ele>319.2950439</ele>
        <time>2008-12-21T10:49:16Z</time>
      </trkpt>
      <trkpt lat="45.7206130" lon="8.9311552">
        <ele>340.4440918</ele>
        <time>2008-12-21T10:51:18Z</time>
      </trkpt>
      <trkpt lat="45.7208061" lon="8.9311337">
        <ele>340.4440918</ele>
        <time>2008-12-21T10:51:36Z</time>
      </trkpt>
      <trkpt lat="45.7209992" lon="8.9311123">
        <ele>343.8085938</ele>
        <time>2008-12-21T10:52:09Z</time>
      </trkpt>
      <trkpt lat="45.7217932" lon="8.9308548">
        <ele>344.2894287</ele>
        <time>2008-12-21T10:52:22Z</time>
      </trkpt>
      <trkpt lat="45.7222009" lon="8.9306831">
        <ele>344.2894287</ele>
        <time>2008-12-21T10:52:38Z</time>
      </trkpt>
      <trkpt lat="45.7225442" lon="8.9308119">
        <ele>343.3278809</ele>
        <time>2008-12-21T10:52:52Z</time>
      </trkpt>
      <trkpt lat="45.7229733" lon="8.9308333">
        <ele>343.3278809</ele>
        <time>2008-12-21T10:53:09Z</time>
      </trkpt>
      <trkpt lat="45.7232523" lon="8.9306831">
        <ele>343.3278809</ele>
        <time>2008-12-21T10:53:20Z</time>
      </trkpt>
      <trkpt lat="45.7236814" lon="8.9304042">
        <ele>343.3278809</ele>
        <time>2008-12-21T10:53:37Z</time>
      </trkpt>
      <trkpt lat="45.7241750" lon="8.9302540">
        <ele>343.3278809</ele>
        <time>2008-12-21T10:53:53Z</time>
      </trkpt>
      <trkpt lat="45.7247543" lon="8.9303184">
        <ele>343.3278809</ele>
        <time>2008-12-21T10:54:10Z</time>
      </trkpt>
      <trkpt lat="45.7252264" lon="8.9305758">
        <ele>342.8472900</ele>
        <time>2008-12-21T10:54:23Z</time>
      </trkpt>
      <trkpt lat="45.7255483" lon="8.9308333">
        <ele>342.8472900</ele>
        <time>2008-12-21T10:54:33Z</time>
      </trkpt>
      <trkpt lat="45.7259130" lon="8.9309835">
        <ele>342.8472900</ele>
        <time>2008-12-21T10:54:44Z</time>
      </trkpt>
      <trkpt lat="45.7262778" lon="8.9310265">
        <ele>342.3666992</ele>
        <time>2008-12-21T10:54:58Z</time>
      </trkpt>
      <trkpt lat="45.7267070" lon="8.9310479">
        <ele>342.8472900</ele>
        <time>2008-12-21T10:55:14Z</time>
      </trkpt>
      <trkpt lat="45.7273722" lon="8.9310479">
        <ele>342.8472900</ele>
        <time>2008-12-21T10:55:36Z</time>
      </trkpt>
      <trkpt lat="45.7277369" lon="8.9311981">
        <ele>345.2506104</ele>
        <time>2008-12-21T10:55:49Z</time>
      </trkpt>
      <trkpt lat="45.7280159" lon="8.9315629">
        <ele>345.2506104</ele>
        <time>2008-12-21T10:56:02Z</time>
      </trkpt>
      <trkpt lat="45.7283378" lon="8.9319706">
        <ele>344.2894287</ele>
        <time>2008-12-21T10:56:14Z</time>
      </trkpt>
      <trkpt lat="45.7287884" lon="8.9326787">
        <ele>346.6926270</ele>
        <time>2008-12-21T10:56:30Z</time>
      </trkpt>
      <trkpt lat="45.7291102" lon="8.9331722">
        <ele>347.6539307</ele>
        <time>2008-12-21T10:56:43Z</time>
      </trkpt>
      <trkpt lat="45.7293463" lon="8.9334941">
        <ele>347.1732178</ele>
        <time>2008-12-21T10:56:53Z</time>
      </trkpt>
      <trkpt lat="45.7295394" lon="8.9338589">
        <ele>348.6152344</ele>
        <time>2008-12-21T10:57:06Z</time>
      </trkpt>
      <trkpt lat="45.7295394" lon="8.9339447">
        <ele>347.1732178</ele>
        <time>2008-12-21T10:57:15Z</time>
      </trkpt>
      <trkpt lat="45.7295394" lon="8.9339232">
        <ele>356.3057861</ele>
        <time>2008-12-21T10:57:30Z</time>
      </trkpt>
      <trkpt lat="45.7294750" lon="8.9337730">
        <ele>363.5157471</ele>
        <time>2008-12-21T11:05:10Z</time>
      </trkpt>
      <trkpt lat="45.7295394" lon="8.9340305">
        <ele>364.9576416</ele>
        <time>2008-12-21T11:05:19Z</time>
      </trkpt>
      <trkpt lat="45.7297111" lon="8.9345026">
        <ele>361.5931396</ele>
        <time>2008-12-21T11:05:29Z</time>
      </trkpt>
      <trkpt lat="45.7299471" lon="8.9351034">
        <ele>359.6704102</ele>
        <time>2008-12-21T11:05:41Z</time>
      </trkpt>
      <trkpt lat="45.7302690" lon="8.9357471">
        <ele>359.1896973</ele>
        <time>2008-12-21T11:05:53Z</time>
      </trkpt>
      <trkpt lat="45.7305694" lon="8.9363480">
        <ele>355.8251953</ele>
        <time>2008-12-21T11:06:04Z</time>
      </trkpt>
      <trkpt lat="45.7308054" lon="8.9369273">
        <ele>351.9798584</ele>
        <time>2008-12-21T11:06:17Z</time>
      </trkpt>
      <trkpt lat="45.7310414" lon="8.9374638">
        <ele>349.0958252</ele>
        <time>2008-12-21T11:06:29Z</time>
      </trkpt>
      <trkpt lat="45.7312560" lon="8.9380431">
        <ele>346.2120361</ele>
        <time>2008-12-21T11:06:40Z</time>
      </trkpt>
      <trkpt lat="45.7314062" lon="8.9385152">
        <ele>345.2506104</ele>
        <time>2008-12-21T11:06:49Z</time>
      </trkpt>
      <trkpt lat="45.7314277" lon="8.9387298">
        <ele>345.7313232</ele>
        <time>2008-12-21T11:06:53Z</time>
      </trkpt>
      <trkpt lat="45.7309985" lon="8.9393735">
        <ele>345.7313232</ele>
        <time>2008-12-21T11:07:04Z</time>
      </trkpt>
      <trkpt lat="45.7307410" lon="8.9397168">
        <ele>345.7313232</ele>
        <time>2008-12-21T11:07:10Z</time>
      </trkpt>
      <trkpt lat="45.7302260" lon="8.9400601">
        <ele>345.7313232</ele>
        <time>2008-12-21T11:07:20Z</time>
      </trkpt>
      <trkpt lat="45.7299042" lon="8.9402318">
        <ele>345.7313232</ele>
        <time>2008-12-21T11:07:26Z</time>
      </trkpt>
      <trkpt lat="45.7294106" lon="8.9407682">
        <ele>345.7313232</ele>
        <time>2008-12-21T11:07:39Z</time>
      </trkpt>
      <trkpt lat="45.7291102" lon="8.9414549">
        <ele>345.7313232</ele>
        <time>2008-12-21T11:07:51Z</time>
      </trkpt>
      <trkpt lat="45.7288957" lon="8.9421201">
        <ele>345.7313232</ele>
        <time>2008-12-21T11:08:01Z</time>
      </trkpt>
      <trkpt lat="45.7288527" lon="8.9422703">
        <ele>345.7313232</ele>
        <time>2008-12-21T11:08:03Z</time>
      </trkpt>
      <trkpt lat="45.7286596" lon="8.9419913">
        <ele>345.7313232</ele>
        <time>2008-12-21T11:08:09Z</time>
      </trkpt>
      <trkpt lat="45.7285523" lon="8.9419484">
        <ele>345.7313232</ele>
        <time>2008-12-21T11:08:11Z</time>
      </trkpt>
      <trkpt lat="45.7283592" lon="8.9420557">
        <ele>347.1732178</ele>
        <time>2008-12-21T11:08:14Z</time>
      </trkpt>
      <trkpt lat="45.7278228" lon="8.9422703">
        <ele>348.1346436</ele>
        <time>2008-12-21T11:08:24Z</time>
      </trkpt>
      <trkpt lat="45.7271576" lon="8.9423776">
        <ele>347.1732178</ele>
        <time>2008-12-21T11:08:37Z</time>
      </trkpt>
      <trkpt lat="45.7266426" lon="8.9426136">
        <ele>343.8085938</ele>
        <time>2008-12-21T11:08:49Z</time>
      </trkpt>
      <trkpt lat="45.7261491" lon="8.9427423">
        <ele>343.8085938</ele>
        <time>2008-12-21T11:08:59Z</time>
      </trkpt>
      <trkpt lat="45.7247543" lon="8.9434290">
        <ele>342.8472900</ele>
        <time>2008-12-21T11:09:17Z</time>
      </trkpt>
      <trkpt lat="45.7240033" lon="8.9436436">
        <ele>343.3278809</ele>
        <time>2008-12-21T11:09:28Z</time>
      </trkpt>
      <trkpt lat="45.7232308" lon="8.9439225">
        <ele>342.3666992</ele>
        <time>2008-12-21T11:09:38Z</time>
      </trkpt>
      <trkpt lat="45.7224369" lon="8.9440942">
        <ele>343.3278809</ele>
        <time>2008-12-21T11:09:49Z</time>
      </trkpt>
      <trkpt lat="45.7217717" lon="8.9442873">
        <ele>343.3278809</ele>
        <time>2008-12-21T11:09:58Z</time>
      </trkpt>
      <trkpt lat="45.7207847" lon="8.9446092">
        <ele>343.3278809</ele>
        <time>2008-12-21T11:10:11Z</time>
      </trkpt>
      <trkpt lat="45.7196903" lon="8.9449739">
        <ele>344.7700195</ele>
        <time>2008-12-21T11:10:25Z</time>
      </trkpt>
      <trkpt lat="45.7193041" lon="8.9449525">
        <ele>344.7700195</ele>
        <time>2008-12-21T11:10:31Z</time>
      </trkpt>
      <trkpt lat="45.7190681" lon="8.9449310">
        <ele>343.8085938</ele>
        <time>2008-12-21T11:10:34Z</time>
      </trkpt>
      <trkpt lat="45.7189178" lon="8.9449310">
        <ele>342.8472900</ele>
        <time>2008-12-21T11:10:36Z</time>
      </trkpt>
      <trkpt lat="45.7177591" lon="8.9453602">
        <ele>341.8859863</ele>
        <time>2008-12-21T11:10:53Z</time>
      </trkpt>
      <trkpt lat="45.7163429" lon="8.9458108">
        <ele>338.5214844</ele>
        <time>2008-12-21T11:11:14Z</time>
      </trkpt>
      <trkpt lat="45.7160854" lon="8.9459181">
        <ele>338.5214844</ele>
        <time>2008-12-21T11:11:18Z</time>
      </trkpt>
      <trkpt lat="45.7154632" lon="8.9456820">
        <ele>338.5214844</ele>
        <time>2008-12-21T11:11:28Z</time>
      </trkpt>
      <trkpt lat="45.7147121" lon="8.9455533">
        <ele>338.0407715</ele>
        <time>2008-12-21T11:11:42Z</time>
      </trkpt>
      <trkpt lat="45.7139611" lon="8.9454246">
        <ele>338.0407715</ele>
        <time>2008-12-21T11:11:55Z</time>
      </trkpt>
      <trkpt lat="45.7133818" lon="8.9451241">
        <ele>338.0407715</ele>
        <time>2008-12-21T11:12:08Z</time>
      </trkpt>
      <trkpt lat="45.7131243" lon="8.9449096">
        <ele>334.1954346</ele>
        <time>2008-12-21T11:12:17Z</time>
      </trkpt>
      <trkpt lat="45.7130170" lon="8.9447808">
        <ele>332.2728271</ele>
        <time>2008-12-21T11:12:25Z</time>
      </trkpt>
      <trkpt lat="45.7128239" lon="8.9445233">
        <ele>316.8917236</ele>
        <time>2008-12-21T11:14:30Z</time>
      </trkpt>
      <trkpt lat="45.7126951" lon="8.9445019">
        <ele>317.3724365</ele>
        <time>2008-12-21T11:14:38Z</time>
      </trkpt>
      <trkpt lat="45.7123733" lon="8.9445233">
        <ele>318.3336182</ele>
        <time>2008-12-21T11:14:52Z</time>
      </trkpt>
      <trkpt lat="45.7120943" lon="8.9447594">
        <ele>319.2950439</ele>
        <time>2008-12-21T11:15:02Z</time>
      </trkpt>
      <trkpt lat="45.7115149" lon="8.9452529">
        <ele>320.2563477</ele>
        <time>2008-12-21T11:15:16Z</time>
      </trkpt>
      <trkpt lat="45.7106566" lon="8.9457035">
        <ele>318.8143311</ele>
        <time>2008-12-21T11:15:38Z</time>
      </trkpt>
      <trkpt lat="45.7102919" lon="8.9458966">
        <ele>317.8530273</ele>
        <time>2008-12-21T11:15:46Z</time>
      </trkpt>
      <trkpt lat="45.7102275" lon="8.9459181">
        <ele>318.8143311</ele>
        <time>2008-12-21T11:15:48Z</time>
      </trkpt>
      <trkpt lat="45.7101631" lon="8.9459610">
        <ele>317.8530273</ele>
        <time>2008-12-21T11:15:50Z</time>
      </trkpt>
      <trkpt lat="45.7097340" lon="8.9461541">
        <ele>316.8917236</ele>
        <time>2008-12-21T11:15:59Z</time>
      </trkpt>
      <trkpt lat="45.7093263" lon="8.9463687">
        <ele>317.3724365</ele>
        <time>2008-12-21T11:16:08Z</time>
      </trkpt>
      <trkpt lat="45.7087684" lon="8.9467764">
        <ele>319.7756348</ele>
        <time>2008-12-21T11:16:20Z</time>
      </trkpt>
      <trkpt lat="45.7085323" lon="8.9469481">
        <ele>319.7756348</ele>
        <time>2008-12-21T11:16:25Z</time>
      </trkpt>
      <trkpt lat="45.7082319" lon="8.9472699">
        <ele>317.8530273</ele>
        <time>2008-12-21T11:16:32Z</time>
      </trkpt>
      <trkpt lat="45.7080603" lon="8.9473343">
        <ele>317.8530273</ele>
        <time>2008-12-21T11:16:36Z</time>
      </trkpt>
      <trkpt lat="45.7073951" lon="8.9476776">
        <ele>313.5272217</ele>
        <time>2008-12-21T11:16:50Z</time>
      </trkpt>
      <trkpt lat="45.7070303" lon="8.9478064">
        <ele>312.5657959</ele>
        <time>2008-12-21T11:16:58Z</time>
      </trkpt>
      <trkpt lat="45.7066011" lon="8.9477634">
        <ele>311.6044922</ele>
        <time>2008-12-21T11:17:08Z</time>
      </trkpt>
      <trkpt lat="45.7061934" lon="8.9476132">
        <ele>310.6430664</ele>
        <time>2008-12-21T11:17:18Z</time>
      </trkpt>
      <trkpt lat="45.7057643" lon="8.9474416">
        <ele>311.1237793</ele>
        <time>2008-12-21T11:17:28Z</time>
      </trkpt>
      <trkpt lat="45.7053351" lon="8.9474201">
        <ele>311.1237793</ele>
        <time>2008-12-21T11:17:38Z</time>
      </trkpt>
      <trkpt lat="45.7048202" lon="8.9473557">
        <ele>309.2011719</ele>
        <time>2008-12-21T11:17:49Z</time>
      </trkpt>
      <trkpt lat="45.7046485" lon="8.9473128">
        <ele>309.6818848</ele>
        <time>2008-12-21T11:17:54Z</time>
      </trkpt>
      <trkpt lat="45.7044983" lon="8.9472485">
        <ele>307.7592773</ele>
        <time>2008-12-21T11:17:59Z</time>
      </trkpt>
      <trkpt lat="45.7040262" lon="8.9471197">
        <ele>306.7978516</ele>
        <time>2008-12-21T11:18:12Z</time>
      </trkpt>
      <trkpt lat="45.7035971" lon="8.9471197">
        <ele>303.9139404</ele>
        <time>2008-12-21T11:18:21Z</time>
      </trkpt>
      <trkpt lat="45.7031465" lon="8.9470124">
        <ele>300.5493164</ele>
        <time>2008-12-21T11:18:32Z</time>
      </trkpt>
      <trkpt lat="45.7026100" lon="8.9470768">
        <ele>301.0299072</ele>
        <time>2008-12-21T11:18:44Z</time>
      </trkpt>
      <trkpt lat="45.7019663" lon="8.9471626">
        <ele>300.0687256</ele>
        <time>2008-12-21T11:18:58Z</time>
      </trkpt>
      <trkpt lat="45.7015371" lon="8.9472485">
        <ele>300.5493164</ele>
        <time>2008-12-21T11:19:08Z</time>
      </trkpt>
      <trkpt lat="45.7012367" lon="8.9474201">
        <ele>300.5493164</ele>
        <time>2008-12-21T11:19:16Z</time>
      </trkpt>
      <trkpt lat="45.7008505" lon="8.9475060">
        <ele>300.5493164</ele>
        <time>2008-12-21T11:19:26Z</time>
      </trkpt>
      <trkpt lat="45.7005286" lon="8.9474845">
        <ele>299.5880127</ele>
        <time>2008-12-21T11:19:35Z</time>
      </trkpt>
      <trkpt lat="45.7000995" lon="8.9475060">
        <ele>297.6654053</ele>
        <time>2008-12-21T11:19:47Z</time>
      </trkpt>
      <trkpt lat="45.6996918" lon="8.9474201">
        <ele>297.1846924</ele>
        <time>2008-12-21T11:19:58Z</time>
      </trkpt>
      <trkpt lat="45.6995845" lon="8.9471626">
        <ele>296.2235107</ele>
        <time>2008-12-21T11:20:02Z</time>
      </trkpt>
      <trkpt lat="45.6993914" lon="8.9465404">
        <ele>294.3007813</ele>
        <time>2008-12-21T11:20:11Z</time>
      </trkpt>
      <trkpt lat="45.6993270" lon="8.9463472">
        <ele>295.7426758</ele>
        <time>2008-12-21T11:20:17Z</time>
      </trkpt>
      <trkpt lat="45.6993699" lon="8.9461970">
        <ele>281.3229980</ele>
        <time>2008-12-21T11:20:56Z</time>
      </trkpt>
      <trkpt lat="45.6995201" lon="8.9460039">
        <ele>272.1904297</ele>
        <time>2008-12-21T11:24:40Z</time>
      </trkpt>
      <trkpt lat="45.6994772" lon="8.9460254">
        <ele>282.2843018</ele>
        <time>2008-12-21T11:25:35Z</time>
      </trkpt>
      <trkpt lat="45.6993914" lon="8.9460468">
        <ele>285.6488037</ele>
        <time>2008-12-21T11:40:05Z</time>
      </trkpt>
      <trkpt lat="45.6993055" lon="8.9462614">
        <ele>336.1181641</ele>
        <time>2008-12-21T11:43:21Z</time>
      </trkpt>
      <trkpt lat="45.6994557" lon="8.9456391">
        <ele>217.3953857</ele>
        <time>2008-12-21T11:44:54Z</time>
      </trkpt>
      <trkpt lat="45.6992841" lon="8.9455104">
        <ele>225.0859375</ele>
        <time>2008-12-21T11:45:03Z</time>
      </trkpt>
      <trkpt lat="45.6991768" lon="8.9454889">
        <ele>225.0859375</ele>
        <time>2008-12-21T11:45:09Z</time>
      </trkpt>
      <trkpt lat="45.6991553" lon="8.9455104">
        <ele>230.3730469</ele>
        <time>2008-12-21T11:45:16Z</time>
      </trkpt>
      <trkpt lat="45.6991124" lon="8.9454675">
        <ele>233.2570801</ele>
        <time>2008-12-21T11:45:27Z</time>
      </trkpt>
      <trkpt lat="45.6990910" lon="8.9454675">
        <ele>232.7764893</ele>
        <time>2008-12-21T11:45:30Z</time>
      </trkpt>
      <trkpt lat="45.6988978" lon="8.9454675">
        <ele>238.0635986</ele>
        <time>2008-12-21T11:45:39Z</time>
      </trkpt>
      <trkpt lat="45.6985760" lon="8.9453602">
        <ele>239.5054932</ele>
        <time>2008-12-21T11:45:50Z</time>
      </trkpt>
      <trkpt lat="45.6983185" lon="8.9452100">
        <ele>240.9476318</ele>
        <time>2008-12-21T11:45:59Z</time>
      </trkpt>
      <trkpt lat="45.6980824" lon="8.9450383">
        <ele>245.2734375</ele>
        <time>2008-12-21T11:46:08Z</time>
      </trkpt>
      <trkpt lat="45.6976318" lon="8.9448237">
        <ele>249.1187744</ele>
        <time>2008-12-21T11:46:21Z</time>
      </trkpt>
      <trkpt lat="45.6973314" lon="8.9447379">
        <ele>251.0413818</ele>
        <time>2008-12-21T11:46:30Z</time>
      </trkpt>
      <trkpt lat="45.6971383" lon="8.9447594">
        <ele>255.8480225</ele>
        <time>2008-12-21T11:46:38Z</time>
      </trkpt>
      <trkpt lat="45.6969237" lon="8.9448237">
        <ele>258.2513428</ele>
        <time>2008-12-21T11:46:48Z</time>
      </trkpt>
      <trkpt lat="45.6967092" lon="8.9448237">
        <ele>257.2900391</ele>
        <time>2008-12-21T11:46:56Z</time>
      </trkpt>
      <trkpt lat="45.6965804" lon="8.9447808">
        <ele>259.6933594</ele>
        <time>2008-12-21T11:47:01Z</time>
      </trkpt>
      <trkpt lat="45.6963444" lon="8.9447808">
        <ele>259.2126465</ele>
        <time>2008-12-21T11:47:10Z</time>
      </trkpt>
      <trkpt lat="45.6963229" lon="8.9448023">
        <ele>259.6933594</ele>
        <time>2008-12-21T11:47:13Z</time>
      </trkpt>
      <trkpt lat="45.6961513" lon="8.9448237">
        <ele>266.4224854</ele>
        <time>2008-12-21T11:47:24Z</time>
      </trkpt>
      <trkpt lat="45.6960440" lon="8.9448452">
        <ele>266.9031982</ele>
        <time>2008-12-21T11:47:32Z</time>
      </trkpt>
      <trkpt lat="45.6960225" lon="8.9450383">
        <ele>267.8645020</ele>
        <time>2008-12-21T11:47:42Z</time>
      </trkpt>
      <trkpt lat="45.6960225" lon="8.9450812">
        <ele>269.3065186</ele>
        <time>2008-12-21T11:47:49Z</time>
      </trkpt>
      <trkpt lat="45.6960225" lon="8.9451027">
        <ele>253.9254150</ele>
        <time>2008-12-21T11:48:03Z</time>
      </trkpt>
      <trkpt lat="45.6961298" lon="8.9452529">
        <ele>258.7319336</ele>
        <time>2008-12-21T11:48:29Z</time>
      </trkpt>
      <trkpt lat="45.6960440" lon="8.9453602">
        <ele>261.1352539</ele>
        <time>2008-12-21T11:48:33Z</time>
      </trkpt>
      <trkpt lat="45.6958723" lon="8.9454889">
        <ele>262.0965576</ele>
        <time>2008-12-21T11:48:38Z</time>
      </trkpt>
      <trkpt lat="45.6955934" lon="8.9456820">
        <ele>262.0965576</ele>
        <time>2008-12-21T11:48:47Z</time>
      </trkpt>
      <trkpt lat="45.6952929" lon="8.9459825">
        <ele>262.0965576</ele>
        <time>2008-12-21T11:48:55Z</time>
      </trkpt>
      <trkpt lat="45.6951213" lon="8.9462614">
        <ele>259.6933594</ele>
        <time>2008-12-21T11:49:02Z</time>
      </trkpt>
      <trkpt lat="45.6949067" lon="8.9468622">
        <ele>258.7319336</ele>
        <time>2008-12-21T11:49:13Z</time>
      </trkpt>
      <trkpt lat="45.6948209" lon="8.9471626">
        <ele>258.7319336</ele>
        <time>2008-12-21T11:49:18Z</time>
      </trkpt>
      <trkpt lat="45.6948209" lon="8.9473772">
        <ele>258.2513428</ele>
        <time>2008-12-21T11:49:24Z</time>
      </trkpt>
      <trkpt lat="45.6948638" lon="8.9475703">
        <ele>257.7707520</ele>
        <time>2008-12-21T11:49:32Z</time>
      </trkpt>
      <trkpt lat="45.6948638" lon="8.9484072">
        <ele>388.0292969</ele>
        <time>2008-12-21T11:50:38Z</time>
      </trkpt>
      <trkpt lat="45.6950355" lon="8.9484286">
        <ele>375.0515137</ele>
        <time>2008-12-21T11:50:48Z</time>
      </trkpt>
      <trkpt lat="45.6950998" lon="8.9484286">
        <ele>352.9411621</ele>
        <time>2008-12-21T11:50:58Z</time>
      </trkpt>
      <trkpt lat="45.6951642" lon="8.9484072">
        <ele>328.9083252</ele>
        <time>2008-12-21T11:51:12Z</time>
      </trkpt>
      <trkpt lat="45.6951213" lon="8.9484072">
        <ele>317.8530273</ele>
        <time>2008-12-21T11:51:20Z</time>
      </trkpt>
      <trkpt lat="45.6951213" lon="8.9483857">
        <ele>309.2011719</ele>
        <time>2008-12-21T11:51:27Z</time>
      </trkpt>
      <trkpt lat="45.6949711" lon="8.9484072">
        <ele>303.9139404</ele>
        <time>2008-12-21T11:51:35Z</time>
      </trkpt>
      <trkpt lat="45.6947136" lon="8.9484072">
        <ele>298.1461182</ele>
        <time>2008-12-21T11:51:44Z</time>
      </trkpt>
      <trkpt lat="45.6944346" lon="8.9483857">
        <ele>287.5714111</ele>
        <time>2008-12-21T11:51:55Z</time>
      </trkpt>
      <trkpt lat="45.6940913" lon="8.9484501">
        <ele>282.7650146</ele>
        <time>2008-12-21T11:52:07Z</time>
      </trkpt>
      <trkpt lat="45.6938124" lon="8.9486647">
        <ele>281.3229980</ele>
        <time>2008-12-21T11:52:16Z</time>
      </trkpt>
      <trkpt lat="45.6936622" lon="8.9487505">
        <ele>281.3229980</ele>
        <time>2008-12-21T11:52:20Z</time>
      </trkpt>
      <trkpt lat="45.6935334" lon="8.9489651">
        <ele>280.8424072</ele>
        <time>2008-12-21T11:52:24Z</time>
      </trkpt>
      <trkpt lat="45.6934047" lon="8.9491796">
        <ele>280.3616943</ele>
        <time>2008-12-21T11:52:28Z</time>
      </trkpt>
      <trkpt lat="45.6931901" lon="8.9494801">
        <ele>277.4776611</ele>
        <time>2008-12-21T11:52:34Z</time>
      </trkpt>
      <trkpt lat="45.6930614" lon="8.9495444">
        <ele>276.5163574</ele>
        <time>2008-12-21T11:52:38Z</time>
      </trkpt>
      <trkpt lat="45.6930184" lon="8.9495444">
        <ele>280.3616943</ele>
        <time>2008-12-21T11:52:46Z</time>
      </trkpt>
      <trkpt lat="45.6929326" lon="8.9496732">
        <ele>280.8424072</ele>
        <time>2008-12-21T11:53:04Z</time>
      </trkpt>
      <trkpt lat="45.6928682" lon="8.9496303">
        <ele>280.8424072</ele>
        <time>2008-12-21T11:53:10Z</time>
      </trkpt>
      <trkpt lat="45.6926966" lon="8.9496732">
        <ele>280.8424072</ele>
        <time>2008-12-21T11:53:14Z</time>
      </trkpt>
      <trkpt lat="45.6924820" lon="8.9497590">
        <ele>278.4389648</ele>
        <time>2008-12-21T11:53:20Z</time>
      </trkpt>
      <trkpt lat="45.6921816" lon="8.9498878">
        <ele>275.5550537</ele>
        <time>2008-12-21T11:53:28Z</time>
      </trkpt>
      <trkpt lat="45.6917739" lon="8.9501667">
        <ele>273.1518555</ele>
        <time>2008-12-21T11:53:38Z</time>
      </trkpt>
      <trkpt lat="45.6914520" lon="8.9502954">
        <ele>273.6324463</ele>
        <time>2008-12-21T11:53:46Z</time>
      </trkpt>
      <trkpt lat="45.6911302" lon="8.9504671">
        <ele>273.1518555</ele>
        <time>2008-12-21T11:53:54Z</time>
      </trkpt>
      <trkpt lat="45.6907439" lon="8.9507675">
        <ele>273.6324463</ele>
        <time>2008-12-21T11:54:06Z</time>
      </trkpt>
      <trkpt lat="45.6905508" lon="8.9508533">
        <ele>267.3839111</ele>
        <time>2008-12-21T11:54:12Z</time>
      </trkpt>
      <trkpt lat="45.6904006" lon="8.9511108">
        <ele>264.0192871</ele>
        <time>2008-12-21T11:54:19Z</time>
      </trkpt>
      <trkpt lat="45.6901431" lon="8.9513469">
        <ele>262.5771484</ele>
        <time>2008-12-21T11:54:27Z</time>
      </trkpt>
      <trkpt lat="45.6898427" lon="8.9517117">
        <ele>263.0578613</ele>
        <time>2008-12-21T11:54:36Z</time>
      </trkpt>
      <trkpt lat="45.6896925" lon="8.9519262">
        <ele>262.5771484</ele>
        <time>2008-12-21T11:54:41Z</time>
      </trkpt>
      <trkpt lat="45.6896281" lon="8.9519477">
        <ele>263.0578613</ele>
        <time>2008-12-21T11:54:43Z</time>
      </trkpt>
      <trkpt lat="45.6895208" lon="8.9519906">
        <ele>262.5771484</ele>
        <time>2008-12-21T11:54:52Z</time>
      </trkpt>
      <trkpt lat="45.6895208" lon="8.9520764">
        <ele>260.6545410</ele>
        <time>2008-12-21T11:54:59Z</time>
      </trkpt>
      <trkpt lat="45.6895208" lon="8.9520979">
        <ele>259.6933594</ele>
        <time>2008-12-21T11:55:03Z</time>
      </trkpt>
      <trkpt lat="45.6895852" lon="8.9522052">
        <ele>258.2513428</ele>
        <time>2008-12-21T11:55:15Z</time>
      </trkpt>
      <trkpt lat="45.6895638" lon="8.9522481">
        <ele>260.1739502</ele>
        <time>2008-12-21T11:55:23Z</time>
      </trkpt>
      <trkpt lat="45.6895638" lon="8.9522696">
        <ele>259.6933594</ele>
        <time>2008-12-21T11:55:25Z</time>
      </trkpt>
      <trkpt lat="45.6894350" lon="8.9523554">
        <ele>264.0192871</ele>
        <time>2008-12-21T11:55:36Z</time>
      </trkpt>
      <trkpt lat="45.6892848" lon="8.9524412">
        <ele>263.0578613</ele>
        <time>2008-12-21T11:55:47Z</time>
      </trkpt>
      <trkpt lat="45.6890488" lon="8.9525914">
        <ele>264.0192871</ele>
        <time>2008-12-21T11:55:55Z</time>
      </trkpt>
      <trkpt lat="45.6887913" lon="8.9529562">
        <ele>264.0192871</ele>
        <time>2008-12-21T11:56:05Z</time>
      </trkpt>
      <trkpt lat="45.6887913" lon="8.9529562">
        <ele>263.0578613</ele>
        <time>2008-12-21T11:56:07Z</time>
      </trkpt>
      <trkpt lat="45.6886840" lon="8.9529991">
        <ele>262.5771484</ele>
        <time>2008-12-21T11:56:12Z</time>
      </trkpt>
      <trkpt lat="45.6885767" lon="8.9530420">
        <ele>261.1352539</ele>
        <time>2008-12-21T11:56:16Z</time>
      </trkpt>
      <trkpt lat="45.6884265" lon="8.9532351">
        <ele>258.2513428</ele>
        <time>2008-12-21T11:56:21Z</time>
      </trkpt>
      <trkpt lat="45.6883621" lon="8.9534068">
        <ele>256.8093262</ele>
        <time>2008-12-21T11:56:28Z</time>
      </trkpt>
      <trkpt lat="45.6883192" lon="8.9534497">
        <ele>263.5385742</ele>
        <time>2008-12-21T11:56:37Z</time>
      </trkpt>
      <trkpt lat="45.6882763" lon="8.9535570">
        <ele>266.4224854</ele>
        <time>2008-12-21T11:56:55Z</time>
      </trkpt>
      <trkpt lat="45.6881046" lon="8.9536643">
        <ele>259.6933594</ele>
        <time>2008-12-21T11:57:04Z</time>
      </trkpt>
      <trkpt lat="45.6878901" lon="8.9535999">
        <ele>259.6933594</ele>
        <time>2008-12-21T11:57:12Z</time>
      </trkpt>
      <trkpt lat="45.6876540" lon="8.9535570">
        <ele>258.2513428</ele>
        <time>2008-12-21T11:57:19Z</time>
      </trkpt>
      <trkpt lat="45.6875467" lon="8.9537072">
        <ele>258.2513428</ele>
        <time>2008-12-21T11:57:24Z</time>
      </trkpt>
      <trkpt lat="45.6873536" lon="8.9537501">
        <ele>257.2900391</ele>
        <time>2008-12-21T11:57:30Z</time>
      </trkpt>
      <trkpt lat="45.6870532" lon="8.9537716">
        <ele>255.8480225</ele>
        <time>2008-12-21T11:57:39Z</time>
      </trkpt>
      <trkpt lat="45.6867099" lon="8.9540291">
        <ele>256.8093262</ele>
        <time>2008-12-21T11:57:49Z</time>
      </trkpt>
      <trkpt lat="45.6864095" lon="8.9542651">
        <ele>254.8865967</ele>
        <time>2008-12-21T11:57:58Z</time>
      </trkpt>
      <trkpt lat="45.6860662" lon="8.9545441">
        <ele>255.3673096</ele>
        <time>2008-12-21T11:58:08Z</time>
      </trkpt>
      <trkpt lat="45.6856799" lon="8.9547586">
        <ele>256.3287354</ele>
        <time>2008-12-21T11:58:19Z</time>
      </trkpt>
      <trkpt lat="45.6852722" lon="8.9548230">
        <ele>254.8865967</ele>
        <time>2008-12-21T11:58:28Z</time>
      </trkpt>
      <trkpt lat="45.6847572" lon="8.9548445">
        <ele>254.4060059</ele>
        <time>2008-12-21T11:58:40Z</time>
      </trkpt>
      <trkpt lat="45.6843495" lon="8.9549732">
        <ele>253.9254150</ele>
        <time>2008-12-21T11:58:51Z</time>
      </trkpt>
      <trkpt lat="45.6840920" lon="8.9550376">
        <ele>252.9639893</ele>
        <time>2008-12-21T11:58:57Z</time>
      </trkpt>
      <trkpt lat="45.6839204" lon="8.9551449">
        <ele>252.0028076</ele>
        <time>2008-12-21T11:59:01Z</time>
      </trkpt>
      <trkpt lat="45.6837916" lon="8.9556599">
        <ele>252.0028076</ele>
        <time>2008-12-21T11:59:10Z</time>
      </trkpt>
      <trkpt lat="45.6837273" lon="8.9557457">
        <ele>252.4833984</ele>
        <time>2008-12-21T11:59:12Z</time>
      </trkpt>
      <trkpt lat="45.6834698" lon="8.9559817">
        <ele>251.0413818</ele>
        <time>2008-12-21T11:59:19Z</time>
      </trkpt>
      <trkpt lat="45.6832981" lon="8.9561749">
        <ele>250.5607910</ele>
        <time>2008-12-21T11:59:26Z</time>
      </trkpt>
      <trkpt lat="45.6832767" lon="8.9561963">
        <ele>245.2734375</ele>
        <time>2008-12-21T11:59:41Z</time>
      </trkpt>
      <trkpt lat="45.6832552" lon="8.9563036">
        <ele>246.2348633</ele>
        <time>2008-12-21T12:01:12Z</time>
      </trkpt>
      <trkpt lat="45.6832767" lon="8.9563251">
        <ele>254.4060059</ele>
        <time>2008-12-21T12:02:35Z</time>
      </trkpt>
      <trkpt lat="45.6832767" lon="8.9563036">
        <ele>252.4833984</ele>
        <time>2008-12-21T12:02:43Z</time>
      </trkpt>
      <trkpt lat="45.6832767" lon="8.9563036">
        <ele>249.1187744</ele>
        <time>2008-12-21T12:02:57Z</time>
      </trkpt>
      <trkpt lat="45.6832337" lon="8.9563036">
        <ele>246.7154541</ele>
        <time>2008-12-21T12:05:08Z</time>
      </trkpt>
      <trkpt lat="45.6831694" lon="8.9564538">
        <ele>248.6381836</ele>
        <time>2008-12-21T12:05:15Z</time>
      </trkpt>
      <trkpt lat="45.6831694" lon="8.9564967">
        <ele>248.6381836</ele>
        <time>2008-12-21T12:05:16Z</time>
      </trkpt>
      <trkpt lat="45.6830406" lon="8.9567113">
        <ele>248.6381836</ele>
        <time>2008-12-21T12:05:23Z</time>
      </trkpt>
      <trkpt lat="45.6828260" lon="8.9568615">
        <ele>250.0802002</ele>
        <time>2008-12-21T12:05:31Z</time>
      </trkpt>
      <trkpt lat="45.6825471" lon="8.9570117">
        <ele>249.1187744</ele>
        <time>2008-12-21T12:05:40Z</time>
      </trkpt>
      <trkpt lat="45.6823111" lon="8.9571619">
        <ele>248.6381836</ele>
        <time>2008-12-21T12:05:48Z</time>
      </trkpt>
      <trkpt lat="45.6820536" lon="8.9572692">
        <ele>248.1575928</ele>
        <time>2008-12-21T12:05:58Z</time>
      </trkpt>
      <trkpt lat="45.6818604" lon="8.9572048">
        <ele>248.6381836</ele>
        <time>2008-12-21T12:06:06Z</time>
      </trkpt>
      <trkpt lat="45.6817532" lon="8.9571834">
        <ele>248.1575928</ele>
        <time>2008-12-21T12:06:10Z</time>
      </trkpt>
      <trkpt lat="45.6817317" lon="8.9572263">
        <ele>248.1575928</ele>
        <time>2008-12-21T12:06:15Z</time>
      </trkpt>
      <trkpt lat="45.6817317" lon="8.9572263">
        <ele>248.6381836</ele>
        <time>2008-12-21T12:06:16Z</time>
      </trkpt>
    </trkseg>
  </trk>

</gpx>
